<?xml version="1.0" encoding="UTF-8" standalone="no" ?>
<gpx xmlns="http://www.topografix.com/GPX/1/1" xmlns:xsi="http://www.w3.org/2001/XMLSchema-instance" xsi:schemaLocation="http://www.topografix.com/GPX/1/1 http://www.topografix.com/GPX/1/1/gpx.xsd" version="1.1" creator="VisuGPX - https://www.visugpx.com">
  <metadata>
    <name>Rando Col de Banette</name>
    <desc><![CDATA[Superbe Panorama ! ]]></desc>
  </metadata>
  <trk>
    <name><![CDATA[Rando Col de Banette_1]]></name>
    <trkseg>
      <trkpt lat="44.31192" lon="3.89978">
        <ele>850</ele>
        <time>2022-08-08T08:41:18Z</time>
      </trkpt>
      <trkpt lat="44.31187" lon="3.89982">
        <ele>849.2</ele>
        <time>2022-08-08T08:41:28Z</time>
      </trkpt>
      <trkpt lat="44.31182" lon="3.89988">
        <ele>849.4</ele>
        <time>2022-08-08T08:41:35Z</time>
      </trkpt>
      <trkpt lat="44.3118" lon="3.89993">
        <ele>849.4</ele>
        <time>2022-08-08T08:41:39Z</time>
      </trkpt>
      <trkpt lat="44.31171" lon="3.90008">
        <ele>850.4</ele>
        <time>2022-08-08T08:41:54Z</time>
      </trkpt>
      <trkpt lat="44.3117" lon="3.90011">
        <ele>851</ele>
        <time>2022-08-08T08:41:57Z</time>
      </trkpt>
      <trkpt lat="44.31167" lon="3.90018">
        <ele>852</ele>
        <time>2022-08-08T08:42:03Z</time>
      </trkpt>
      <trkpt lat="44.31164" lon="3.90022">
        <ele>852.6</ele>
        <time>2022-08-08T08:42:07Z</time>
      </trkpt>
      <trkpt lat="44.31159" lon="3.90035">
        <ele>853.2</ele>
        <time>2022-08-08T08:42:17Z</time>
      </trkpt>
      <trkpt lat="44.31157" lon="3.9004">
        <ele>853.6</ele>
        <time>2022-08-08T08:42:21Z</time>
      </trkpt>
      <trkpt lat="44.31154" lon="3.90049">
        <ele>854.2</ele>
        <time>2022-08-08T08:42:28Z</time>
      </trkpt>
      <trkpt lat="44.31149" lon="3.90059">
        <ele>854.4</ele>
        <time>2022-08-08T08:42:36Z</time>
      </trkpt>
      <trkpt lat="44.31146" lon="3.90064">
        <ele>855.2</ele>
        <time>2022-08-08T08:42:42Z</time>
      </trkpt>
      <trkpt lat="44.31142" lon="3.9007">
        <ele>856.4</ele>
        <time>2022-08-08T08:42:49Z</time>
      </trkpt>
      <trkpt lat="44.31142" lon="3.9007">
        <ele>856.6</ele>
        <time>2022-08-08T08:42:50Z</time>
      </trkpt>
      <trkpt lat="44.31139" lon="3.90078">
        <ele>857.4</ele>
        <time>2022-08-08T08:43:00Z</time>
      </trkpt>
      <trkpt lat="44.31139" lon="3.90079">
        <ele>857.4</ele>
        <time>2022-08-08T08:43:03Z</time>
      </trkpt>
      <trkpt lat="44.3114" lon="3.90078">
        <ele>858.6</ele>
        <time>2022-08-08T08:43:07Z</time>
      </trkpt>
      <trkpt lat="44.3114" lon="3.90078">
        <ele>858.6</ele>
        <time>2022-08-08T08:43:12Z</time>
      </trkpt>
      <trkpt lat="44.3114" lon="3.90076">
        <ele>857.4</ele>
        <time>2022-08-08T08:43:20Z</time>
      </trkpt>
      <trkpt lat="44.3114" lon="3.90076">
        <ele>857.4</ele>
        <time>2022-08-08T08:43:21Z</time>
      </trkpt>
      <trkpt lat="44.3114" lon="3.90076">
        <ele>857.4</ele>
        <time>2022-08-08T08:43:22Z</time>
      </trkpt>
      <trkpt lat="44.31142" lon="3.90075">
        <ele>857</ele>
        <time>2022-08-08T08:43:36Z</time>
      </trkpt>
      <trkpt lat="44.31142" lon="3.90075">
        <ele>857</ele>
        <time>2022-08-08T08:43:53Z</time>
      </trkpt>
      <trkpt lat="44.3114" lon="3.90076">
        <ele>856.6</ele>
        <time>2022-08-08T08:44:06Z</time>
      </trkpt>
      <trkpt lat="44.31135" lon="3.90081">
        <ele>857.2</ele>
        <time>2022-08-08T08:44:16Z</time>
      </trkpt>
      <trkpt lat="44.31132" lon="3.90099">
        <ele>856.8</ele>
        <time>2022-08-08T08:44:30Z</time>
      </trkpt>
      <trkpt lat="44.3113" lon="3.90112">
        <ele>856.4</ele>
        <time>2022-08-08T08:44:40Z</time>
      </trkpt>
      <trkpt lat="44.3113" lon="3.90113">
        <ele>856.2</ele>
        <time>2022-08-08T08:44:41Z</time>
      </trkpt>
      <trkpt lat="44.3113" lon="3.90113">
        <ele>856.4</ele>
        <time>2022-08-08T08:44:43Z</time>
      </trkpt>
      <trkpt lat="44.3113" lon="3.90113">
        <ele>857.4</ele>
        <time>2022-08-08T08:44:48Z</time>
      </trkpt>
      <trkpt lat="44.31129" lon="3.90114">
        <ele>857.2</ele>
        <time>2022-08-08T08:44:56Z</time>
      </trkpt>
      <trkpt lat="44.31129" lon="3.90115">
        <ele>856.4</ele>
        <time>2022-08-08T08:45:01Z</time>
      </trkpt>
      <trkpt lat="44.31129" lon="3.90116">
        <ele>856.4</ele>
        <time>2022-08-08T08:45:03Z</time>
      </trkpt>
      <trkpt lat="44.31129" lon="3.90118">
        <ele>856.2</ele>
        <time>2022-08-08T08:45:06Z</time>
      </trkpt>
      <trkpt lat="44.31129" lon="3.90119">
        <ele>856</ele>
        <time>2022-08-08T08:45:08Z</time>
      </trkpt>
      <trkpt lat="44.31129" lon="3.90123">
        <ele>855.8</ele>
        <time>2022-08-08T08:45:13Z</time>
      </trkpt>
      <trkpt lat="44.31127" lon="3.90148">
        <ele>855.4</ele>
        <time>2022-08-08T08:45:25Z</time>
      </trkpt>
      <trkpt lat="44.31115" lon="3.90154">
        <ele>855</ele>
        <time>2022-08-08T08:45:40Z</time>
      </trkpt>
      <trkpt lat="44.31117" lon="3.90155">
        <ele>855.8</ele>
        <time>2022-08-08T08:45:50Z</time>
      </trkpt>
      <trkpt lat="44.31117" lon="3.90155">
        <ele>855.8</ele>
        <time>2022-08-08T08:46:01Z</time>
      </trkpt>
      <trkpt lat="44.31117" lon="3.90155">
        <ele>856.4</ele>
        <time>2022-08-08T08:46:07Z</time>
      </trkpt>
      <trkpt lat="44.31117" lon="3.90155">
        <ele>855.4</ele>
        <time>2022-08-08T08:46:12Z</time>
      </trkpt>
      <trkpt lat="44.31117" lon="3.90156">
        <ele>855</ele>
        <time>2022-08-08T08:46:18Z</time>
      </trkpt>
      <trkpt lat="44.31113" lon="3.9016">
        <ele>854.4</ele>
        <time>2022-08-08T08:46:30Z</time>
      </trkpt>
      <trkpt lat="44.31112" lon="3.90163">
        <ele>854.2</ele>
        <time>2022-08-08T08:46:34Z</time>
      </trkpt>
      <trkpt lat="44.31111" lon="3.90164">
        <ele>854</ele>
        <time>2022-08-08T08:46:35Z</time>
      </trkpt>
      <trkpt lat="44.31106" lon="3.9017">
        <ele>853.2</ele>
        <time>2022-08-08T08:46:42Z</time>
      </trkpt>
      <trkpt lat="44.31094" lon="3.90183">
        <ele>852.2</ele>
        <time>2022-08-08T08:46:57Z</time>
      </trkpt>
      <trkpt lat="44.31093" lon="3.90185">
        <ele>851.8</ele>
        <time>2022-08-08T08:46:59Z</time>
      </trkpt>
      <trkpt lat="44.31091" lon="3.9019">
        <ele>850.8</ele>
        <time>2022-08-08T08:47:05Z</time>
      </trkpt>
      <trkpt lat="44.31089" lon="3.90193">
        <ele>850.6</ele>
        <time>2022-08-08T08:47:08Z</time>
      </trkpt>
      <trkpt lat="44.31084" lon="3.90199">
        <ele>850</ele>
        <time>2022-08-08T08:47:15Z</time>
      </trkpt>
      <trkpt lat="44.31082" lon="3.90201">
        <ele>850</ele>
        <time>2022-08-08T08:47:19Z</time>
      </trkpt>
      <trkpt lat="44.31081" lon="3.90203">
        <ele>849.6</ele>
        <time>2022-08-08T08:47:21Z</time>
      </trkpt>
      <trkpt lat="44.31075" lon="3.90218">
        <ele>849.2</ele>
        <time>2022-08-08T08:47:33Z</time>
      </trkpt>
      <trkpt lat="44.31069" lon="3.90229">
        <ele>848.8</ele>
        <time>2022-08-08T08:47:45Z</time>
      </trkpt>
      <trkpt lat="44.31066" lon="3.90234">
        <ele>848.6</ele>
        <time>2022-08-08T08:47:49Z</time>
      </trkpt>
      <trkpt lat="44.3106" lon="3.9025">
        <ele>848.2</ele>
        <time>2022-08-08T08:48:00Z</time>
      </trkpt>
      <trkpt lat="44.31053" lon="3.90269">
        <ele>849.4</ele>
        <time>2022-08-08T08:48:14Z</time>
      </trkpt>
      <trkpt lat="44.31052" lon="3.90279">
        <ele>849.6</ele>
        <time>2022-08-08T08:48:21Z</time>
      </trkpt>
      <trkpt lat="44.31052" lon="3.90282">
        <ele>850</ele>
        <time>2022-08-08T08:48:24Z</time>
      </trkpt>
      <trkpt lat="44.31052" lon="3.90283">
        <ele>850</ele>
        <time>2022-08-08T08:48:26Z</time>
      </trkpt>
      <trkpt lat="44.31051" lon="3.90284">
        <ele>850.8</ele>
        <time>2022-08-08T08:48:31Z</time>
      </trkpt>
      <trkpt lat="44.3105" lon="3.90288">
        <ele>850.4</ele>
        <time>2022-08-08T08:48:38Z</time>
      </trkpt>
      <trkpt lat="44.31048" lon="3.90291">
        <ele>850.8</ele>
        <time>2022-08-08T08:48:42Z</time>
      </trkpt>
      <trkpt lat="44.31044" lon="3.90299">
        <ele>851.4</ele>
        <time>2022-08-08T08:48:49Z</time>
      </trkpt>
      <trkpt lat="44.31041" lon="3.90309">
        <ele>851.8</ele>
        <time>2022-08-08T08:48:57Z</time>
      </trkpt>
      <trkpt lat="44.31039" lon="3.90317">
        <ele>852</ele>
        <time>2022-08-08T08:49:03Z</time>
      </trkpt>
      <trkpt lat="44.31037" lon="3.90325">
        <ele>852.8</ele>
        <time>2022-08-08T08:49:10Z</time>
      </trkpt>
      <trkpt lat="44.31034" lon="3.90335">
        <ele>853.2</ele>
        <time>2022-08-08T08:49:18Z</time>
      </trkpt>
      <trkpt lat="44.31028" lon="3.90352">
        <ele>852.8</ele>
        <time>2022-08-08T08:49:33Z</time>
      </trkpt>
      <trkpt lat="44.31021" lon="3.9037">
        <ele>852.4</ele>
        <time>2022-08-08T08:49:48Z</time>
      </trkpt>
      <trkpt lat="44.31018" lon="3.90376">
        <ele>851.8</ele>
        <time>2022-08-08T08:49:54Z</time>
      </trkpt>
      <trkpt lat="44.31016" lon="3.90381">
        <ele>851.2</ele>
        <time>2022-08-08T08:50:00Z</time>
      </trkpt>
      <trkpt lat="44.31015" lon="3.90381">
        <ele>851</ele>
        <time>2022-08-08T08:50:01Z</time>
      </trkpt>
      <trkpt lat="44.31015" lon="3.90381">
        <ele>851.2</ele>
        <time>2022-08-08T08:50:04Z</time>
      </trkpt>
      <trkpt lat="44.31012" lon="3.90384">
        <ele>851</ele>
        <time>2022-08-08T08:50:11Z</time>
      </trkpt>
      <trkpt lat="44.31005" lon="3.90391">
        <ele>850.8</ele>
        <time>2022-08-08T08:50:19Z</time>
      </trkpt>
      <trkpt lat="44.31002" lon="3.90394">
        <ele>850.6</ele>
        <time>2022-08-08T08:50:22Z</time>
      </trkpt>
      <trkpt lat="44.30992" lon="3.9041">
        <ele>850.6</ele>
        <time>2022-08-08T08:50:37Z</time>
      </trkpt>
      <trkpt lat="44.3099" lon="3.90419">
        <ele>850.2</ele>
        <time>2022-08-08T08:50:45Z</time>
      </trkpt>
      <trkpt lat="44.30987" lon="3.90422">
        <ele>850</ele>
        <time>2022-08-08T08:50:49Z</time>
      </trkpt>
      <trkpt lat="44.30985" lon="3.90423">
        <ele>850</ele>
        <time>2022-08-08T08:50:53Z</time>
      </trkpt>
      <trkpt lat="44.30984" lon="3.90421">
        <ele>850.2</ele>
        <time>2022-08-08T08:50:59Z</time>
      </trkpt>
      <trkpt lat="44.30981" lon="3.90426">
        <ele>849.8</ele>
        <time>2022-08-08T08:51:03Z</time>
      </trkpt>
      <trkpt lat="44.30978" lon="3.90429">
        <ele>849.4</ele>
        <time>2022-08-08T08:51:07Z</time>
      </trkpt>
      <trkpt lat="44.30967" lon="3.90443">
        <ele>849.4</ele>
        <time>2022-08-08T08:51:21Z</time>
      </trkpt>
      <trkpt lat="44.30957" lon="3.90448">
        <ele>850.4</ele>
        <time>2022-08-08T08:51:34Z</time>
      </trkpt>
      <trkpt lat="44.30954" lon="3.9045">
        <ele>850.8</ele>
        <time>2022-08-08T08:51:37Z</time>
      </trkpt>
      <trkpt lat="44.30948" lon="3.90461">
        <ele>851.8</ele>
        <time>2022-08-08T08:51:47Z</time>
      </trkpt>
      <trkpt lat="44.30944" lon="3.90469">
        <ele>853</ele>
        <time>2022-08-08T08:51:55Z</time>
      </trkpt>
      <trkpt lat="44.30942" lon="3.90472">
        <ele>853.4</ele>
        <time>2022-08-08T08:51:58Z</time>
      </trkpt>
      <trkpt lat="44.3094" lon="3.90476">
        <ele>853.8</ele>
        <time>2022-08-08T08:52:03Z</time>
      </trkpt>
      <trkpt lat="44.30939" lon="3.90481">
        <ele>853.6</ele>
        <time>2022-08-08T08:52:08Z</time>
      </trkpt>
      <trkpt lat="44.30937" lon="3.90485">
        <ele>854</ele>
        <time>2022-08-08T08:52:12Z</time>
      </trkpt>
      <trkpt lat="44.30933" lon="3.90495">
        <ele>854.4</ele>
        <time>2022-08-08T08:52:21Z</time>
      </trkpt>
      <trkpt lat="44.30925" lon="3.90511">
        <ele>855.2</ele>
        <time>2022-08-08T08:52:35Z</time>
      </trkpt>
      <trkpt lat="44.30922" lon="3.90512">
        <ele>856.2</ele>
        <time>2022-08-08T08:52:40Z</time>
      </trkpt>
      <trkpt lat="44.3092" lon="3.9052">
        <ele>857</ele>
        <time>2022-08-08T08:52:46Z</time>
      </trkpt>
      <trkpt lat="44.30919" lon="3.90521">
        <ele>857.2</ele>
        <time>2022-08-08T08:52:48Z</time>
      </trkpt>
      <trkpt lat="44.30919" lon="3.90521">
        <ele>857.2</ele>
        <time>2022-08-08T08:52:49Z</time>
      </trkpt>
      <trkpt lat="44.30919" lon="3.90525">
        <ele>857</ele>
        <time>2022-08-08T08:52:55Z</time>
      </trkpt>
      <trkpt lat="44.30919" lon="3.9053">
        <ele>857.2</ele>
        <time>2022-08-08T08:52:59Z</time>
      </trkpt>
      <trkpt lat="44.30914" lon="3.90541">
        <ele>858.4</ele>
        <time>2022-08-08T08:53:08Z</time>
      </trkpt>
      <trkpt lat="44.30911" lon="3.90544">
        <ele>859</ele>
        <time>2022-08-08T08:53:11Z</time>
      </trkpt>
      <trkpt lat="44.30909" lon="3.90546">
        <ele>859.4</ele>
        <time>2022-08-08T08:53:13Z</time>
      </trkpt>
      <trkpt lat="44.30906" lon="3.90555">
        <ele>860.6</ele>
        <time>2022-08-08T08:53:20Z</time>
      </trkpt>
      <trkpt lat="44.30905" lon="3.90559">
        <ele>861.2</ele>
        <time>2022-08-08T08:53:24Z</time>
      </trkpt>
      <trkpt lat="44.30906" lon="3.90559">
        <ele>861.6</ele>
        <time>2022-08-08T08:53:26Z</time>
      </trkpt>
      <trkpt lat="44.30906" lon="3.90559">
        <ele>861.8</ele>
        <time>2022-08-08T08:53:29Z</time>
      </trkpt>
      <trkpt lat="44.30909" lon="3.90566">
        <ele>862.2</ele>
        <time>2022-08-08T08:53:38Z</time>
      </trkpt>
      <trkpt lat="44.30909" lon="3.90568">
        <ele>862.2</ele>
        <time>2022-08-08T08:53:39Z</time>
      </trkpt>
      <trkpt lat="44.3091" lon="3.90574">
        <ele>862.8</ele>
        <time>2022-08-08T08:53:44Z</time>
      </trkpt>
      <trkpt lat="44.30908" lon="3.90579">
        <ele>864</ele>
        <time>2022-08-08T08:53:49Z</time>
      </trkpt>
      <trkpt lat="44.30907" lon="3.90581">
        <ele>864.6</ele>
        <time>2022-08-08T08:53:51Z</time>
      </trkpt>
      <trkpt lat="44.30906" lon="3.90582">
        <ele>865</ele>
        <time>2022-08-08T08:53:53Z</time>
      </trkpt>
      <trkpt lat="44.30905" lon="3.90587">
        <ele>866.2</ele>
        <time>2022-08-08T08:53:57Z</time>
      </trkpt>
      <trkpt lat="44.30904" lon="3.90592">
        <ele>867.2</ele>
        <time>2022-08-08T08:54:02Z</time>
      </trkpt>
      <trkpt lat="44.30903" lon="3.90592">
        <ele>867.4</ele>
        <time>2022-08-08T08:54:03Z</time>
      </trkpt>
      <trkpt lat="44.30902" lon="3.90594">
        <ele>868.4</ele>
        <time>2022-08-08T08:54:06Z</time>
      </trkpt>
      <trkpt lat="44.30899" lon="3.90599">
        <ele>869.6</ele>
        <time>2022-08-08T08:54:11Z</time>
      </trkpt>
      <trkpt lat="44.30898" lon="3.90603">
        <ele>870.2</ele>
        <time>2022-08-08T08:54:14Z</time>
      </trkpt>
      <trkpt lat="44.30898" lon="3.90605">
        <ele>870.6</ele>
        <time>2022-08-08T08:54:16Z</time>
      </trkpt>
      <trkpt lat="44.30898" lon="3.9061">
        <ele>871.8</ele>
        <time>2022-08-08T08:54:21Z</time>
      </trkpt>
      <trkpt lat="44.30896" lon="3.90614">
        <ele>872.8</ele>
        <time>2022-08-08T08:54:25Z</time>
      </trkpt>
      <trkpt lat="44.30895" lon="3.90615">
        <ele>873.2</ele>
        <time>2022-08-08T08:54:26Z</time>
      </trkpt>
      <trkpt lat="44.30894" lon="3.90619">
        <ele>874</ele>
        <time>2022-08-08T08:54:29Z</time>
      </trkpt>
      <trkpt lat="44.30893" lon="3.90626">
        <ele>875.2</ele>
        <time>2022-08-08T08:54:35Z</time>
      </trkpt>
      <trkpt lat="44.3089" lon="3.90633">
        <ele>876.2</ele>
        <time>2022-08-08T08:54:41Z</time>
      </trkpt>
      <trkpt lat="44.30889" lon="3.90634">
        <ele>876.4</ele>
        <time>2022-08-08T08:54:42Z</time>
      </trkpt>
      <trkpt lat="44.30887" lon="3.90638">
        <ele>877.6</ele>
        <time>2022-08-08T08:54:47Z</time>
      </trkpt>
      <trkpt lat="44.30886" lon="3.90644">
        <ele>878.8</ele>
        <time>2022-08-08T08:54:52Z</time>
      </trkpt>
      <trkpt lat="44.30887" lon="3.90649">
        <ele>879.4</ele>
        <time>2022-08-08T08:54:55Z</time>
      </trkpt>
      <trkpt lat="44.30887" lon="3.90652">
        <ele>880</ele>
        <time>2022-08-08T08:54:58Z</time>
      </trkpt>
      <trkpt lat="44.30886" lon="3.90654">
        <ele>881.2</ele>
        <time>2022-08-08T08:55:02Z</time>
      </trkpt>
      <trkpt lat="44.30884" lon="3.90655">
        <ele>881.8</ele>
        <time>2022-08-08T08:55:04Z</time>
      </trkpt>
      <trkpt lat="44.30882" lon="3.90655">
        <ele>882.2</ele>
        <time>2022-08-08T08:55:06Z</time>
      </trkpt>
      <trkpt lat="44.30881" lon="3.90655">
        <ele>882.4</ele>
        <time>2022-08-08T08:55:07Z</time>
      </trkpt>
      <trkpt lat="44.30881" lon="3.90655">
        <ele>882.8</ele>
        <time>2022-08-08T08:55:08Z</time>
      </trkpt>
      <trkpt lat="44.3088" lon="3.90657">
        <ele>883.6</ele>
        <time>2022-08-08T08:55:10Z</time>
      </trkpt>
      <trkpt lat="44.30878" lon="3.90663">
        <ele>884.8</ele>
        <time>2022-08-08T08:55:16Z</time>
      </trkpt>
      <trkpt lat="44.30878" lon="3.90665">
        <ele>885.4</ele>
        <time>2022-08-08T08:55:18Z</time>
      </trkpt>
      <trkpt lat="44.30877" lon="3.90669">
        <ele>886</ele>
        <time>2022-08-08T08:55:22Z</time>
      </trkpt>
      <trkpt lat="44.30878" lon="3.90673">
        <ele>887</ele>
        <time>2022-08-08T08:55:27Z</time>
      </trkpt>
      <trkpt lat="44.30875" lon="3.90675">
        <ele>887.6</ele>
        <time>2022-08-08T08:55:29Z</time>
      </trkpt>
      <trkpt lat="44.30873" lon="3.90676">
        <ele>888.2</ele>
        <time>2022-08-08T08:55:31Z</time>
      </trkpt>
      <trkpt lat="44.30872" lon="3.90677">
        <ele>888.8</ele>
        <time>2022-08-08T08:55:33Z</time>
      </trkpt>
      <trkpt lat="44.30871" lon="3.90679">
        <ele>889.4</ele>
        <time>2022-08-08T08:55:35Z</time>
      </trkpt>
      <trkpt lat="44.30869" lon="3.9068">
        <ele>890.2</ele>
        <time>2022-08-08T08:55:39Z</time>
      </trkpt>
      <trkpt lat="44.30869" lon="3.90682">
        <ele>890.6</ele>
        <time>2022-08-08T08:55:41Z</time>
      </trkpt>
      <trkpt lat="44.30869" lon="3.90685">
        <ele>891.6</ele>
        <time>2022-08-08T08:55:44Z</time>
      </trkpt>
      <trkpt lat="44.3087" lon="3.9069">
        <ele>892.6</ele>
        <time>2022-08-08T08:55:49Z</time>
      </trkpt>
      <trkpt lat="44.30871" lon="3.90695">
        <ele>893.8</ele>
        <time>2022-08-08T08:55:54Z</time>
      </trkpt>
      <trkpt lat="44.30872" lon="3.90696">
        <ele>894.2</ele>
        <time>2022-08-08T08:55:56Z</time>
      </trkpt>
      <trkpt lat="44.30873" lon="3.90699">
        <ele>894.8</ele>
        <time>2022-08-08T08:55:59Z</time>
      </trkpt>
      <trkpt lat="44.30874" lon="3.90703">
        <ele>896</ele>
        <time>2022-08-08T08:56:03Z</time>
      </trkpt>
      <trkpt lat="44.30875" lon="3.90707">
        <ele>897.2</ele>
        <time>2022-08-08T08:56:07Z</time>
      </trkpt>
      <trkpt lat="44.30875" lon="3.90708">
        <ele>897.4</ele>
        <time>2022-08-08T08:56:08Z</time>
      </trkpt>
      <trkpt lat="44.30877" lon="3.90712">
        <ele>898.2</ele>
        <time>2022-08-08T08:56:13Z</time>
      </trkpt>
      <trkpt lat="44.30876" lon="3.90715">
        <ele>899.2</ele>
        <time>2022-08-08T08:56:19Z</time>
      </trkpt>
      <trkpt lat="44.30876" lon="3.90716">
        <ele>899.6</ele>
        <time>2022-08-08T08:56:20Z</time>
      </trkpt>
      <trkpt lat="44.30878" lon="3.90721">
        <ele>900.6</ele>
        <time>2022-08-08T08:56:30Z</time>
      </trkpt>
      <trkpt lat="44.30878" lon="3.90722">
        <ele>900.6</ele>
        <time>2022-08-08T08:56:31Z</time>
      </trkpt>
      <trkpt lat="44.3088" lon="3.90728">
        <ele>901.4</ele>
        <time>2022-08-08T08:56:36Z</time>
      </trkpt>
      <trkpt lat="44.3088" lon="3.9073">
        <ele>901.8</ele>
        <time>2022-08-08T08:56:37Z</time>
      </trkpt>
      <trkpt lat="44.30882" lon="3.90735">
        <ele>902.8</ele>
        <time>2022-08-08T08:56:42Z</time>
      </trkpt>
      <trkpt lat="44.30883" lon="3.9074">
        <ele>903.8</ele>
        <time>2022-08-08T08:56:47Z</time>
      </trkpt>
      <trkpt lat="44.30886" lon="3.9074">
        <ele>904.2</ele>
        <time>2022-08-08T08:56:51Z</time>
      </trkpt>
      <trkpt lat="44.30888" lon="3.9074">
        <ele>905</ele>
        <time>2022-08-08T08:57:03Z</time>
      </trkpt>
      <trkpt lat="44.30888" lon="3.90739">
        <ele>905</ele>
        <time>2022-08-08T08:57:05Z</time>
      </trkpt>
      <trkpt lat="44.30888" lon="3.90739">
        <ele>904.6</ele>
        <time>2022-08-08T08:57:17Z</time>
      </trkpt>
      <trkpt lat="44.30888" lon="3.90739">
        <ele>904.6</ele>
        <time>2022-08-08T08:57:30Z</time>
      </trkpt>
      <trkpt lat="44.30889" lon="3.90739">
        <ele>904</ele>
        <time>2022-08-08T08:57:47Z</time>
      </trkpt>
      <trkpt lat="44.30889" lon="3.90739">
        <ele>904</ele>
        <time>2022-08-08T08:57:57Z</time>
      </trkpt>
      <trkpt lat="44.30888" lon="3.9074">
        <ele>904.2</ele>
        <time>2022-08-08T08:58:06Z</time>
      </trkpt>
      <trkpt lat="44.30885" lon="3.9074">
        <ele>904.2</ele>
        <time>2022-08-08T08:58:17Z</time>
      </trkpt>
      <trkpt lat="44.30885" lon="3.9074">
        <ele>903.8</ele>
        <time>2022-08-08T08:58:19Z</time>
      </trkpt>
      <trkpt lat="44.30884" lon="3.9074">
        <ele>904.4</ele>
        <time>2022-08-08T08:58:36Z</time>
      </trkpt>
      <trkpt lat="44.30884" lon="3.9074">
        <ele>905</ele>
        <time>2022-08-08T08:58:40Z</time>
      </trkpt>
      <trkpt lat="44.30884" lon="3.90741">
        <ele>904.2</ele>
        <time>2022-08-08T08:58:54Z</time>
      </trkpt>
      <trkpt lat="44.30884" lon="3.90741">
        <ele>903.8</ele>
        <time>2022-08-08T08:58:58Z</time>
      </trkpt>
      <trkpt lat="44.3088" lon="3.9074">
        <ele>904.2</ele>
        <time>2022-08-08T08:59:06Z</time>
      </trkpt>
      <trkpt lat="44.30876" lon="3.9074">
        <ele>904.4</ele>
        <time>2022-08-08T08:59:10Z</time>
      </trkpt>
      <trkpt lat="44.30874" lon="3.9074">
        <ele>905</ele>
        <time>2022-08-08T08:59:12Z</time>
      </trkpt>
      <trkpt lat="44.30868" lon="3.90738">
        <ele>905.8</ele>
        <time>2022-08-08T08:59:18Z</time>
      </trkpt>
      <trkpt lat="44.30867" lon="3.90738">
        <ele>906.2</ele>
        <time>2022-08-08T08:59:20Z</time>
      </trkpt>
      <trkpt lat="44.30858" lon="3.90738">
        <ele>907.2</ele>
        <time>2022-08-08T08:59:30Z</time>
      </trkpt>
      <trkpt lat="44.30857" lon="3.90739">
        <ele>907.4</ele>
        <time>2022-08-08T08:59:31Z</time>
      </trkpt>
      <trkpt lat="44.30857" lon="3.90744">
        <ele>907.6</ele>
        <time>2022-08-08T08:59:35Z</time>
      </trkpt>
      <trkpt lat="44.30856" lon="3.90749">
        <ele>908.4</ele>
        <time>2022-08-08T08:59:39Z</time>
      </trkpt>
      <trkpt lat="44.30857" lon="3.90749">
        <ele>908.6</ele>
        <time>2022-08-08T08:59:40Z</time>
      </trkpt>
      <trkpt lat="44.30858" lon="3.90752">
        <ele>909.6</ele>
        <time>2022-08-08T08:59:43Z</time>
      </trkpt>
      <trkpt lat="44.30859" lon="3.90755">
        <ele>910.2</ele>
        <time>2022-08-08T08:59:46Z</time>
      </trkpt>
      <trkpt lat="44.30859" lon="3.90757">
        <ele>910.4</ele>
        <time>2022-08-08T08:59:47Z</time>
      </trkpt>
      <trkpt lat="44.30859" lon="3.90759">
        <ele>910.6</ele>
        <time>2022-08-08T08:59:48Z</time>
      </trkpt>
      <trkpt lat="44.3086" lon="3.90763">
        <ele>911</ele>
        <time>2022-08-08T08:59:51Z</time>
      </trkpt>
      <trkpt lat="44.30861" lon="3.90772">
        <ele>911.8</ele>
        <time>2022-08-08T08:59:58Z</time>
      </trkpt>
      <trkpt lat="44.30863" lon="3.90782">
        <ele>912.4</ele>
        <time>2022-08-08T09:00:04Z</time>
      </trkpt>
      <trkpt lat="44.30864" lon="3.90789">
        <ele>912.8</ele>
        <time>2022-08-08T09:00:09Z</time>
      </trkpt>
      <trkpt lat="44.30863" lon="3.90795">
        <ele>913.4</ele>
        <time>2022-08-08T09:00:15Z</time>
      </trkpt>
      <trkpt lat="44.30863" lon="3.90796">
        <ele>914</ele>
        <time>2022-08-08T09:00:18Z</time>
      </trkpt>
      <trkpt lat="44.30864" lon="3.908">
        <ele>913.6</ele>
        <time>2022-08-08T09:00:25Z</time>
      </trkpt>
      <trkpt lat="44.30861" lon="3.90812">
        <ele>913.8</ele>
        <time>2022-08-08T09:00:34Z</time>
      </trkpt>
      <trkpt lat="44.30858" lon="3.90832">
        <ele>913.2</ele>
        <time>2022-08-08T09:00:47Z</time>
      </trkpt>
      <trkpt lat="44.30858" lon="3.90835">
        <ele>913</ele>
        <time>2022-08-08T09:00:49Z</time>
      </trkpt>
      <trkpt lat="44.30857" lon="3.90853">
        <ele>913.8</ele>
        <time>2022-08-08T09:01:01Z</time>
      </trkpt>
      <trkpt lat="44.30857" lon="3.90869">
        <ele>914</ele>
        <time>2022-08-08T09:01:11Z</time>
      </trkpt>
      <trkpt lat="44.30858" lon="3.90873">
        <ele>914.2</ele>
        <time>2022-08-08T09:01:14Z</time>
      </trkpt>
      <trkpt lat="44.30859" lon="3.90882">
        <ele>914.4</ele>
        <time>2022-08-08T09:01:20Z</time>
      </trkpt>
      <trkpt lat="44.30859" lon="3.90889">
        <ele>913.8</ele>
        <time>2022-08-08T09:01:25Z</time>
      </trkpt>
      <trkpt lat="44.30858" lon="3.90899">
        <ele>913.8</ele>
        <time>2022-08-08T09:01:34Z</time>
      </trkpt>
      <trkpt lat="44.30857" lon="3.90899">
        <ele>913.6</ele>
        <time>2022-08-08T09:01:35Z</time>
      </trkpt>
      <trkpt lat="44.30857" lon="3.909">
        <ele>914</ele>
        <time>2022-08-08T09:01:44Z</time>
      </trkpt>
      <trkpt lat="44.30858" lon="3.90901">
        <ele>913</ele>
        <time>2022-08-08T09:01:49Z</time>
      </trkpt>
      <trkpt lat="44.30856" lon="3.90908">
        <ele>911.8</ele>
        <time>2022-08-08T09:01:55Z</time>
      </trkpt>
      <trkpt lat="44.30853" lon="3.90912">
        <ele>910.6</ele>
        <time>2022-08-08T09:02:02Z</time>
      </trkpt>
      <trkpt lat="44.30852" lon="3.90915">
        <ele>909.8</ele>
        <time>2022-08-08T09:02:05Z</time>
      </trkpt>
      <trkpt lat="44.30852" lon="3.90917">
        <ele>909.6</ele>
        <time>2022-08-08T09:02:06Z</time>
      </trkpt>
      <trkpt lat="44.30851" lon="3.90931">
        <ele>908.2</ele>
        <time>2022-08-08T09:02:16Z</time>
      </trkpt>
      <trkpt lat="44.30849" lon="3.90941">
        <ele>907.2</ele>
        <time>2022-08-08T09:02:22Z</time>
      </trkpt>
      <trkpt lat="44.30847" lon="3.90952">
        <ele>906.2</ele>
        <time>2022-08-08T09:02:28Z</time>
      </trkpt>
      <trkpt lat="44.30847" lon="3.90954">
        <ele>906</ele>
        <time>2022-08-08T09:02:29Z</time>
      </trkpt>
      <trkpt lat="44.30847" lon="3.90958">
        <ele>906.2</ele>
        <time>2022-08-08T09:02:34Z</time>
      </trkpt>
      <trkpt lat="44.30847" lon="3.90959">
        <ele>906.6</ele>
        <time>2022-08-08T09:02:37Z</time>
      </trkpt>
      <trkpt lat="44.30847" lon="3.90964">
        <ele>906.4</ele>
        <time>2022-08-08T09:02:40Z</time>
      </trkpt>
      <trkpt lat="44.30843" lon="3.90973">
        <ele>906.4</ele>
        <time>2022-08-08T09:02:46Z</time>
      </trkpt>
      <trkpt lat="44.30839" lon="3.90993">
        <ele>905.2</ele>
        <time>2022-08-08T09:02:59Z</time>
      </trkpt>
      <trkpt lat="44.30839" lon="3.90995">
        <ele>905</ele>
        <time>2022-08-08T09:03:00Z</time>
      </trkpt>
      <trkpt lat="44.30838" lon="3.9101">
        <ele>905.2</ele>
        <time>2022-08-08T09:03:08Z</time>
      </trkpt>
      <trkpt lat="44.30836" lon="3.9102">
        <ele>906.2</ele>
        <time>2022-08-08T09:03:14Z</time>
      </trkpt>
      <trkpt lat="44.30836" lon="3.91023">
        <ele>906.4</ele>
        <time>2022-08-08T09:03:16Z</time>
      </trkpt>
      <trkpt lat="44.30836" lon="3.91024">
        <ele>906.4</ele>
        <time>2022-08-08T09:03:17Z</time>
      </trkpt>
      <trkpt lat="44.30835" lon="3.91023">
        <ele>906.8</ele>
        <time>2022-08-08T09:03:19Z</time>
      </trkpt>
      <trkpt lat="44.30835" lon="3.91021">
        <ele>906.8</ele>
        <time>2022-08-08T09:03:21Z</time>
      </trkpt>
      <trkpt lat="44.30834" lon="3.91019">
        <ele>906.6</ele>
        <time>2022-08-08T09:03:23Z</time>
      </trkpt>
      <trkpt lat="44.30835" lon="3.91013">
        <ele>906.2</ele>
        <time>2022-08-08T09:03:28Z</time>
      </trkpt>
      <trkpt lat="44.30835" lon="3.9101">
        <ele>906</ele>
        <time>2022-08-08T09:03:30Z</time>
      </trkpt>
      <trkpt lat="44.30837" lon="3.91004">
        <ele>905</ele>
        <time>2022-08-08T09:03:35Z</time>
      </trkpt>
      <trkpt lat="44.30838" lon="3.90996">
        <ele>904.6</ele>
        <time>2022-08-08T09:03:39Z</time>
      </trkpt>
      <trkpt lat="44.30841" lon="3.90984">
        <ele>904.8</ele>
        <time>2022-08-08T09:03:47Z</time>
      </trkpt>
      <trkpt lat="44.30842" lon="3.90974">
        <ele>906.2</ele>
        <time>2022-08-08T09:03:53Z</time>
      </trkpt>
      <trkpt lat="44.30843" lon="3.90971">
        <ele>906.4</ele>
        <time>2022-08-08T09:03:55Z</time>
      </trkpt>
      <trkpt lat="44.30845" lon="3.90959">
        <ele>906.8</ele>
        <time>2022-08-08T09:04:03Z</time>
      </trkpt>
      <trkpt lat="44.30844" lon="3.90955">
        <ele>906.8</ele>
        <time>2022-08-08T09:04:06Z</time>
      </trkpt>
      <trkpt lat="44.30844" lon="3.90948">
        <ele>907.2</ele>
        <time>2022-08-08T09:04:10Z</time>
      </trkpt>
      <trkpt lat="44.30844" lon="3.90947">
        <ele>907.2</ele>
        <time>2022-08-08T09:04:11Z</time>
      </trkpt>
      <trkpt lat="44.30846" lon="3.90932">
        <ele>908.2</ele>
        <time>2022-08-08T09:04:20Z</time>
      </trkpt>
      <trkpt lat="44.30847" lon="3.90928">
        <ele>908.8</ele>
        <time>2022-08-08T09:04:23Z</time>
      </trkpt>
      <trkpt lat="44.30848" lon="3.90926">
        <ele>909.2</ele>
        <time>2022-08-08T09:04:25Z</time>
      </trkpt>
      <trkpt lat="44.3085" lon="3.90923">
        <ele>909.6</ele>
        <time>2022-08-08T09:04:28Z</time>
      </trkpt>
      <trkpt lat="44.3085" lon="3.9092">
        <ele>909.4</ele>
        <time>2022-08-08T09:04:30Z</time>
      </trkpt>
      <trkpt lat="44.30851" lon="3.90916">
        <ele>909.4</ele>
        <time>2022-08-08T09:04:33Z</time>
      </trkpt>
      <trkpt lat="44.30851" lon="3.90914">
        <ele>910</ele>
        <time>2022-08-08T09:04:35Z</time>
      </trkpt>
      <trkpt lat="44.30852" lon="3.90913">
        <ele>910.6</ele>
        <time>2022-08-08T09:04:37Z</time>
      </trkpt>
      <trkpt lat="44.30853" lon="3.90913">
        <ele>910.8</ele>
        <time>2022-08-08T09:04:38Z</time>
      </trkpt>
      <trkpt lat="44.30855" lon="3.90909">
        <ele>911.2</ele>
        <time>2022-08-08T09:04:41Z</time>
      </trkpt>
      <trkpt lat="44.30854" lon="3.90908">
        <ele>911.2</ele>
        <time>2022-08-08T09:04:42Z</time>
      </trkpt>
      <trkpt lat="44.30854" lon="3.90907">
        <ele>911.4</ele>
        <time>2022-08-08T09:04:43Z</time>
      </trkpt>
      <trkpt lat="44.30854" lon="3.90905">
        <ele>911.6</ele>
        <time>2022-08-08T09:04:45Z</time>
      </trkpt>
      <trkpt lat="44.30854" lon="3.90902">
        <ele>912</ele>
        <time>2022-08-08T09:04:47Z</time>
      </trkpt>
      <trkpt lat="44.30855" lon="3.90897">
        <ele>912.6</ele>
        <time>2022-08-08T09:04:50Z</time>
      </trkpt>
      <trkpt lat="44.30856" lon="3.90896">
        <ele>912.8</ele>
        <time>2022-08-08T09:04:51Z</time>
      </trkpt>
      <trkpt lat="44.30857" lon="3.9089">
        <ele>913.6</ele>
        <time>2022-08-08T09:04:55Z</time>
      </trkpt>
      <trkpt lat="44.30857" lon="3.90888">
        <ele>913.8</ele>
        <time>2022-08-08T09:04:56Z</time>
      </trkpt>
      <trkpt lat="44.30858" lon="3.90881">
        <ele>913.8</ele>
        <time>2022-08-08T09:05:01Z</time>
      </trkpt>
      <trkpt lat="44.30859" lon="3.9087">
        <ele>914</ele>
        <time>2022-08-08T09:05:11Z</time>
      </trkpt>
      <trkpt lat="44.3086" lon="3.90869">
        <ele>914</ele>
        <time>2022-08-08T09:05:13Z</time>
      </trkpt>
      <trkpt lat="44.30859" lon="3.90869">
        <ele>914.2</ele>
        <time>2022-08-08T09:05:14Z</time>
      </trkpt>
      <trkpt lat="44.30858" lon="3.9086">
        <ele>913.8</ele>
        <time>2022-08-08T09:05:26Z</time>
      </trkpt>
      <trkpt lat="44.30858" lon="3.90843">
        <ele>912.6</ele>
        <time>2022-08-08T09:05:38Z</time>
      </trkpt>
      <trkpt lat="44.30858" lon="3.90841">
        <ele>912.6</ele>
        <time>2022-08-08T09:05:40Z</time>
      </trkpt>
      <trkpt lat="44.30864" lon="3.9082">
        <ele>912.4</ele>
        <time>2022-08-08T09:05:53Z</time>
      </trkpt>
      <trkpt lat="44.30867" lon="3.90806">
        <ele>912.8</ele>
        <time>2022-08-08T09:06:01Z</time>
      </trkpt>
      <trkpt lat="44.30867" lon="3.90801">
        <ele>912.8</ele>
        <time>2022-08-08T09:06:05Z</time>
      </trkpt>
      <trkpt lat="44.30866" lon="3.90798">
        <ele>913.4</ele>
        <time>2022-08-08T09:06:14Z</time>
      </trkpt>
      <trkpt lat="44.30863" lon="3.90791">
        <ele>913.2</ele>
        <time>2022-08-08T09:06:20Z</time>
      </trkpt>
      <trkpt lat="44.30863" lon="3.90789">
        <ele>913.2</ele>
        <time>2022-08-08T09:06:22Z</time>
      </trkpt>
      <trkpt lat="44.30862" lon="3.90769">
        <ele>912</ele>
        <time>2022-08-08T09:06:36Z</time>
      </trkpt>
      <trkpt lat="44.30862" lon="3.90761">
        <ele>911.6</ele>
        <time>2022-08-08T09:06:41Z</time>
      </trkpt>
      <trkpt lat="44.30859" lon="3.90752">
        <ele>910.4</ele>
        <time>2022-08-08T09:06:48Z</time>
      </trkpt>
      <trkpt lat="44.30857" lon="3.90749">
        <ele>908.2</ele>
        <time>2022-08-08T09:06:51Z</time>
      </trkpt>
      <trkpt lat="44.30855" lon="3.90742">
        <ele>907.8</ele>
        <time>2022-08-08T09:06:57Z</time>
      </trkpt>
      <trkpt lat="44.30857" lon="3.90738">
        <ele>907.2</ele>
        <time>2022-08-08T09:07:01Z</time>
      </trkpt>
      <trkpt lat="44.30858" lon="3.90738">
        <ele>907.2</ele>
        <time>2022-08-08T09:07:02Z</time>
      </trkpt>
      <trkpt lat="44.30859" lon="3.90738">
        <ele>907.2</ele>
        <time>2022-08-08T09:07:03Z</time>
      </trkpt>
      <trkpt lat="44.30861" lon="3.90737">
        <ele>907</ele>
        <time>2022-08-08T09:07:04Z</time>
      </trkpt>
      <trkpt lat="44.30866" lon="3.90738">
        <ele>906.4</ele>
        <time>2022-08-08T09:07:09Z</time>
      </trkpt>
      <trkpt lat="44.3087" lon="3.90738">
        <ele>906.2</ele>
        <time>2022-08-08T09:07:13Z</time>
      </trkpt>
      <trkpt lat="44.30871" lon="3.90738">
        <ele>906</ele>
        <time>2022-08-08T09:07:14Z</time>
      </trkpt>
      <trkpt lat="44.30876" lon="3.90738">
        <ele>905</ele>
        <time>2022-08-08T09:07:20Z</time>
      </trkpt>
      <trkpt lat="44.30878" lon="3.90739">
        <ele>904.4</ele>
        <time>2022-08-08T09:07:22Z</time>
      </trkpt>
      <trkpt lat="44.30882" lon="3.90738">
        <ele>904</ele>
        <time>2022-08-08T09:07:27Z</time>
      </trkpt>
      <trkpt lat="44.30882" lon="3.90737">
        <ele>904</ele>
        <time>2022-08-08T09:07:28Z</time>
      </trkpt>
      <trkpt lat="44.3088" lon="3.90734">
        <ele>903.2</ele>
        <time>2022-08-08T09:07:32Z</time>
      </trkpt>
      <trkpt lat="44.3088" lon="3.90732">
        <ele>903.2</ele>
        <time>2022-08-08T09:07:33Z</time>
      </trkpt>
      <trkpt lat="44.3088" lon="3.90732">
        <ele>902.6</ele>
        <time>2022-08-08T09:07:37Z</time>
      </trkpt>
      <trkpt lat="44.30878" lon="3.90723">
        <ele>901.8</ele>
        <time>2022-08-08T09:07:43Z</time>
      </trkpt>
      <trkpt lat="44.30877" lon="3.90722">
        <ele>901.6</ele>
        <time>2022-08-08T09:07:44Z</time>
      </trkpt>
      <trkpt lat="44.30876" lon="3.90718">
        <ele>900.4</ele>
        <time>2022-08-08T09:07:48Z</time>
      </trkpt>
      <trkpt lat="44.30874" lon="3.90711">
        <ele>900</ele>
        <time>2022-08-08T09:07:54Z</time>
      </trkpt>
      <trkpt lat="44.30873" lon="3.90708">
        <ele>899.2</ele>
        <time>2022-08-08T09:07:57Z</time>
      </trkpt>
      <trkpt lat="44.30872" lon="3.90703">
        <ele>898.2</ele>
        <time>2022-08-08T09:08:04Z</time>
      </trkpt>
      <trkpt lat="44.30872" lon="3.907">
        <ele>897.2</ele>
        <time>2022-08-08T09:08:07Z</time>
      </trkpt>
      <trkpt lat="44.30872" lon="3.907">
        <ele>897</ele>
        <time>2022-08-08T09:08:08Z</time>
      </trkpt>
      <trkpt lat="44.3087" lon="3.90697">
        <ele>895.6</ele>
        <time>2022-08-08T09:08:13Z</time>
      </trkpt>
      <trkpt lat="44.3087" lon="3.90693">
        <ele>893</ele>
        <time>2022-08-08T09:08:18Z</time>
      </trkpt>
      <trkpt lat="44.3087" lon="3.90692">
        <ele>893</ele>
        <time>2022-08-08T09:08:19Z</time>
      </trkpt>
      <trkpt lat="44.3087" lon="3.90686">
        <ele>891.8</ele>
        <time>2022-08-08T09:08:26Z</time>
      </trkpt>
      <trkpt lat="44.30872" lon="3.90681">
        <ele>890.8</ele>
        <time>2022-08-08T09:08:32Z</time>
      </trkpt>
      <trkpt lat="44.30873" lon="3.9068">
        <ele>890.6</ele>
        <time>2022-08-08T09:08:33Z</time>
      </trkpt>
      <trkpt lat="44.30874" lon="3.90677">
        <ele>889.4</ele>
        <time>2022-08-08T09:08:38Z</time>
      </trkpt>
      <trkpt lat="44.30876" lon="3.90674">
        <ele>888.4</ele>
        <time>2022-08-08T09:08:44Z</time>
      </trkpt>
      <trkpt lat="44.30876" lon="3.90672">
        <ele>888</ele>
        <time>2022-08-08T09:08:47Z</time>
      </trkpt>
      <trkpt lat="44.30877" lon="3.9067">
        <ele>887</ele>
        <time>2022-08-08T09:08:50Z</time>
      </trkpt>
      <trkpt lat="44.30877" lon="3.90668">
        <ele>886</ele>
        <time>2022-08-08T09:08:53Z</time>
      </trkpt>
      <trkpt lat="44.30876" lon="3.90663">
        <ele>886</ele>
        <time>2022-08-08T09:08:58Z</time>
      </trkpt>
      <trkpt lat="44.30875" lon="3.9066">
        <ele>884.8</ele>
        <time>2022-08-08T09:09:01Z</time>
      </trkpt>
      <trkpt lat="44.30877" lon="3.90656">
        <ele>883.6</ele>
        <time>2022-08-08T09:09:06Z</time>
      </trkpt>
      <trkpt lat="44.30879" lon="3.90654">
        <ele>882.6</ele>
        <time>2022-08-08T09:09:11Z</time>
      </trkpt>
      <trkpt lat="44.30883" lon="3.90651">
        <ele>881.6</ele>
        <time>2022-08-08T09:09:17Z</time>
      </trkpt>
      <trkpt lat="44.30887" lon="3.90648">
        <ele>880.4</ele>
        <time>2022-08-08T09:09:21Z</time>
      </trkpt>
      <trkpt lat="44.30887" lon="3.90646">
        <ele>879.6</ele>
        <time>2022-08-08T09:09:23Z</time>
      </trkpt>
      <trkpt lat="44.30887" lon="3.90644">
        <ele>879.6</ele>
        <time>2022-08-08T09:09:24Z</time>
      </trkpt>
      <trkpt lat="44.30887" lon="3.90642">
        <ele>879.4</ele>
        <time>2022-08-08T09:09:25Z</time>
      </trkpt>
      <trkpt lat="44.30887" lon="3.90637">
        <ele>877</ele>
        <time>2022-08-08T09:09:29Z</time>
      </trkpt>
      <trkpt lat="44.30891" lon="3.90629">
        <ele>875.6</ele>
        <time>2022-08-08T09:09:37Z</time>
      </trkpt>
      <trkpt lat="44.30893" lon="3.90621">
        <ele>874.6</ele>
        <time>2022-08-08T09:09:42Z</time>
      </trkpt>
      <trkpt lat="44.30893" lon="3.90615">
        <ele>873.2</ele>
        <time>2022-08-08T09:09:48Z</time>
      </trkpt>
      <trkpt lat="44.30894" lon="3.90614">
        <ele>872.8</ele>
        <time>2022-08-08T09:09:50Z</time>
      </trkpt>
      <trkpt lat="44.30894" lon="3.90611">
        <ele>872.2</ele>
        <time>2022-08-08T09:09:52Z</time>
      </trkpt>
      <trkpt lat="44.30895" lon="3.90609">
        <ele>871.4</ele>
        <time>2022-08-08T09:09:55Z</time>
      </trkpt>
      <trkpt lat="44.30895" lon="3.90608">
        <ele>871.4</ele>
        <time>2022-08-08T09:09:56Z</time>
      </trkpt>
      <trkpt lat="44.30896" lon="3.90605">
        <ele>871.2</ele>
        <time>2022-08-08T09:09:58Z</time>
      </trkpt>
      <trkpt lat="44.30896" lon="3.90603">
        <ele>870.6</ele>
        <time>2022-08-08T09:10:00Z</time>
      </trkpt>
      <trkpt lat="44.30896" lon="3.906">
        <ele>870.2</ele>
        <time>2022-08-08T09:10:02Z</time>
      </trkpt>
      <trkpt lat="44.30899" lon="3.90594">
        <ele>869</ele>
        <time>2022-08-08T09:10:09Z</time>
      </trkpt>
      <trkpt lat="44.30901" lon="3.9059">
        <ele>868</ele>
        <time>2022-08-08T09:10:13Z</time>
      </trkpt>
      <trkpt lat="44.30902" lon="3.9059">
        <ele>867.8</ele>
        <time>2022-08-08T09:10:14Z</time>
      </trkpt>
      <trkpt lat="44.30903" lon="3.9059">
        <ele>867.2</ele>
        <time>2022-08-08T09:10:16Z</time>
      </trkpt>
      <trkpt lat="44.30905" lon="3.90588">
        <ele>866.6</ele>
        <time>2022-08-08T09:10:21Z</time>
      </trkpt>
      <trkpt lat="44.30906" lon="3.90587">
        <ele>866.2</ele>
        <time>2022-08-08T09:10:23Z</time>
      </trkpt>
      <trkpt lat="44.30906" lon="3.90584">
        <ele>865.6</ele>
        <time>2022-08-08T09:10:25Z</time>
      </trkpt>
      <trkpt lat="44.30906" lon="3.90577">
        <ele>864.6</ele>
        <time>2022-08-08T09:10:32Z</time>
      </trkpt>
      <trkpt lat="44.30906" lon="3.90576">
        <ele>864</ele>
        <time>2022-08-08T09:10:34Z</time>
      </trkpt>
      <trkpt lat="44.30906" lon="3.90575">
        <ele>863.4</ele>
        <time>2022-08-08T09:10:35Z</time>
      </trkpt>
      <trkpt lat="44.30906" lon="3.90569">
        <ele>862.2</ele>
        <time>2022-08-08T09:10:41Z</time>
      </trkpt>
      <trkpt lat="44.30906" lon="3.90566">
        <ele>861.6</ele>
        <time>2022-08-08T09:10:44Z</time>
      </trkpt>
      <trkpt lat="44.30906" lon="3.90563">
        <ele>861.4</ele>
        <time>2022-08-08T09:10:46Z</time>
      </trkpt>
      <trkpt lat="44.30906" lon="3.9056">
        <ele>861.2</ele>
        <time>2022-08-08T09:10:48Z</time>
      </trkpt>
      <trkpt lat="44.30906" lon="3.90554">
        <ele>860.6</ele>
        <time>2022-08-08T09:10:53Z</time>
      </trkpt>
      <trkpt lat="44.30907" lon="3.90551">
        <ele>860.2</ele>
        <time>2022-08-08T09:10:56Z</time>
      </trkpt>
      <trkpt lat="44.30909" lon="3.90544">
        <ele>859.4</ele>
        <time>2022-08-08T09:11:02Z</time>
      </trkpt>
      <trkpt lat="44.30909" lon="3.90543">
        <ele>858.8</ele>
        <time>2022-08-08T09:11:03Z</time>
      </trkpt>
      <trkpt lat="44.3091" lon="3.90542">
        <ele>858.6</ele>
        <time>2022-08-08T09:11:05Z</time>
      </trkpt>
      <trkpt lat="44.30912" lon="3.9054">
        <ele>858.2</ele>
        <time>2022-08-08T09:11:07Z</time>
      </trkpt>
      <trkpt lat="44.30914" lon="3.90538">
        <ele>857.8</ele>
        <time>2022-08-08T09:11:09Z</time>
      </trkpt>
      <trkpt lat="44.30915" lon="3.90536">
        <ele>857.8</ele>
        <time>2022-08-08T09:11:10Z</time>
      </trkpt>
      <trkpt lat="44.30917" lon="3.90527">
        <ele>856.8</ele>
        <time>2022-08-08T09:11:17Z</time>
      </trkpt>
      <trkpt lat="44.30917" lon="3.90521">
        <ele>856.4</ele>
        <time>2022-08-08T09:11:21Z</time>
      </trkpt>
      <trkpt lat="44.30919" lon="3.90521">
        <ele>856.2</ele>
        <time>2022-08-08T09:11:23Z</time>
      </trkpt>
      <trkpt lat="44.3092" lon="3.90519">
        <ele>856</ele>
        <time>2022-08-08T09:11:25Z</time>
      </trkpt>
      <trkpt lat="44.30922" lon="3.90514">
        <ele>855.8</ele>
        <time>2022-08-08T09:11:29Z</time>
      </trkpt>
      <trkpt lat="44.30923" lon="3.90513">
        <ele>855.6</ele>
        <time>2022-08-08T09:11:30Z</time>
      </trkpt>
      <trkpt lat="44.30926" lon="3.90511">
        <ele>854.8</ele>
        <time>2022-08-08T09:11:34Z</time>
      </trkpt>
      <trkpt lat="44.3093" lon="3.90507">
        <ele>853.4</ele>
        <time>2022-08-08T09:11:39Z</time>
      </trkpt>
      <trkpt lat="44.30931" lon="3.90504">
        <ele>853.4</ele>
        <time>2022-08-08T09:11:41Z</time>
      </trkpt>
      <trkpt lat="44.30935" lon="3.90492">
        <ele>854.4</ele>
        <time>2022-08-08T09:11:49Z</time>
      </trkpt>
      <trkpt lat="44.30943" lon="3.90477">
        <ele>853.2</ele>
        <time>2022-08-08T09:12:01Z</time>
      </trkpt>
      <trkpt lat="44.30946" lon="3.90471">
        <ele>853.2</ele>
        <time>2022-08-08T09:12:08Z</time>
      </trkpt>
      <trkpt lat="44.30947" lon="3.9047">
        <ele>853.2</ele>
        <time>2022-08-08T09:12:10Z</time>
      </trkpt>
      <trkpt lat="44.30947" lon="3.90469">
        <ele>853.2</ele>
        <time>2022-08-08T09:12:11Z</time>
      </trkpt>
      <trkpt lat="44.30949" lon="3.90469">
        <ele>852.8</ele>
        <time>2022-08-08T09:12:14Z</time>
      </trkpt>
      <trkpt lat="44.3095" lon="3.90465">
        <ele>852.6</ele>
        <time>2022-08-08T09:12:17Z</time>
      </trkpt>
      <trkpt lat="44.30951" lon="3.90463">
        <ele>852.4</ele>
        <time>2022-08-08T09:12:19Z</time>
      </trkpt>
      <trkpt lat="44.30952" lon="3.90462">
        <ele>852.4</ele>
        <time>2022-08-08T09:12:20Z</time>
      </trkpt>
      <trkpt lat="44.30953" lon="3.90457">
        <ele>851.4</ele>
        <time>2022-08-08T09:12:25Z</time>
      </trkpt>
      <trkpt lat="44.30956" lon="3.9045">
        <ele>850.8</ele>
        <time>2022-08-08T09:12:34Z</time>
      </trkpt>
      <trkpt lat="44.30957" lon="3.90448">
        <ele>850.4</ele>
        <time>2022-08-08T09:12:37Z</time>
      </trkpt>
      <trkpt lat="44.30963" lon="3.90443">
        <ele>849.4</ele>
        <time>2022-08-08T09:12:48Z</time>
      </trkpt>
      <trkpt lat="44.30963" lon="3.90443">
        <ele>849.4</ele>
        <time>2022-08-08T09:12:49Z</time>
      </trkpt>
      <trkpt lat="44.30971" lon="3.90436">
        <ele>849</ele>
        <time>2022-08-08T09:13:01Z</time>
      </trkpt>
      <trkpt lat="44.30974" lon="3.90433">
        <ele>848.4</ele>
        <time>2022-08-08T09:13:07Z</time>
      </trkpt>
      <trkpt lat="44.3098" lon="3.90429">
        <ele>849.4</ele>
        <time>2022-08-08T09:13:13Z</time>
      </trkpt>
      <trkpt lat="44.30981" lon="3.90428">
        <ele>850</ele>
        <time>2022-08-08T09:13:14Z</time>
      </trkpt>
      <trkpt lat="44.30988" lon="3.90419">
        <ele>850.2</ele>
        <time>2022-08-08T09:13:24Z</time>
      </trkpt>
      <trkpt lat="44.30994" lon="3.90406">
        <ele>850.8</ele>
        <time>2022-08-08T09:13:36Z</time>
      </trkpt>
      <trkpt lat="44.31" lon="3.90399">
        <ele>850.6</ele>
        <time>2022-08-08T09:13:47Z</time>
      </trkpt>
      <trkpt lat="44.31001" lon="3.90395">
        <ele>850.6</ele>
        <time>2022-08-08T09:13:58Z</time>
      </trkpt>
      <trkpt lat="44.31004" lon="3.90392">
        <ele>851</ele>
        <time>2022-08-08T09:14:05Z</time>
      </trkpt>
      <trkpt lat="44.31005" lon="3.9039">
        <ele>851.2</ele>
        <time>2022-08-08T09:14:07Z</time>
      </trkpt>
      <trkpt lat="44.31014" lon="3.9038">
        <ele>850.8</ele>
        <time>2022-08-08T09:14:20Z</time>
      </trkpt>
      <trkpt lat="44.31021" lon="3.90367">
        <ele>851.8</ele>
        <time>2022-08-08T09:14:31Z</time>
      </trkpt>
      <trkpt lat="44.31021" lon="3.90363">
        <ele>852</ele>
        <time>2022-08-08T09:14:36Z</time>
      </trkpt>
      <trkpt lat="44.31021" lon="3.90363">
        <ele>852</ele>
        <time>2022-08-08T09:14:40Z</time>
      </trkpt>
      <trkpt lat="44.31022" lon="3.90363">
        <ele>849.6</ele>
        <time>2022-08-08T09:14:46Z</time>
      </trkpt>
      <trkpt lat="44.31022" lon="3.90363">
        <ele>847.4</ele>
        <time>2022-08-08T09:14:47Z</time>
      </trkpt>
      <trkpt lat="44.31022" lon="3.90363">
        <ele>846.2</ele>
        <time>2022-08-08T09:14:48Z</time>
      </trkpt>
      <trkpt lat="44.31022" lon="3.90363">
        <ele>843.6</ele>
        <time>2022-08-08T09:14:49Z</time>
      </trkpt>
      <trkpt lat="44.31022" lon="3.90363">
        <ele>842.2</ele>
        <time>2022-08-08T09:14:50Z</time>
      </trkpt>
      <trkpt lat="44.31022" lon="3.90363">
        <ele>843.6</ele>
        <time>2022-08-08T09:14:51Z</time>
      </trkpt>
      <trkpt lat="44.31022" lon="3.90364">
        <ele>847.2</ele>
        <time>2022-08-08T09:14:52Z</time>
      </trkpt>
      <trkpt lat="44.31023" lon="3.90364">
        <ele>849.2</ele>
        <time>2022-08-08T09:14:53Z</time>
      </trkpt>
      <trkpt lat="44.31023" lon="3.90364">
        <ele>850.4</ele>
        <time>2022-08-08T09:14:54Z</time>
      </trkpt>
      <trkpt lat="44.31023" lon="3.90364">
        <ele>851.4</ele>
        <time>2022-08-08T09:14:55Z</time>
      </trkpt>
      <trkpt lat="44.31023" lon="3.90364">
        <ele>851.8</ele>
        <time>2022-08-08T09:14:56Z</time>
      </trkpt>
      <trkpt lat="44.31023" lon="3.90364">
        <ele>851.2</ele>
        <time>2022-08-08T09:15:12Z</time>
      </trkpt>
      <trkpt lat="44.31024" lon="3.90361">
        <ele>851</ele>
        <time>2022-08-08T09:15:24Z</time>
      </trkpt>
      <trkpt lat="44.3103" lon="3.90349">
        <ele>852.2</ele>
        <time>2022-08-08T09:15:35Z</time>
      </trkpt>
      <trkpt lat="44.31034" lon="3.90334">
        <ele>852</ele>
        <time>2022-08-08T09:15:47Z</time>
      </trkpt>
      <trkpt lat="44.31034" lon="3.9032">
        <ele>851.8</ele>
        <time>2022-08-08T09:15:59Z</time>
      </trkpt>
      <trkpt lat="44.31038" lon="3.90306">
        <ele>851.4</ele>
        <time>2022-08-08T09:16:12Z</time>
      </trkpt>
      <trkpt lat="44.31039" lon="3.903">
        <ele>850.8</ele>
        <time>2022-08-08T09:16:17Z</time>
      </trkpt>
      <trkpt lat="44.31043" lon="3.90291">
        <ele>850.6</ele>
        <time>2022-08-08T09:16:25Z</time>
      </trkpt>
      <trkpt lat="44.31045" lon="3.90287">
        <ele>850.4</ele>
        <time>2022-08-08T09:16:30Z</time>
      </trkpt>
      <trkpt lat="44.31047" lon="3.90284">
        <ele>849.8</ele>
        <time>2022-08-08T09:16:34Z</time>
      </trkpt>
      <trkpt lat="44.31048" lon="3.90282">
        <ele>849.6</ele>
        <time>2022-08-08T09:16:36Z</time>
      </trkpt>
      <trkpt lat="44.3105" lon="3.90277">
        <ele>848.6</ele>
        <time>2022-08-08T09:16:41Z</time>
      </trkpt>
      <trkpt lat="44.31051" lon="3.90272">
        <ele>848</ele>
        <time>2022-08-08T09:16:50Z</time>
      </trkpt>
      <trkpt lat="44.31052" lon="3.90272">
        <ele>824.6</ele>
        <time>2022-08-08T09:16:56Z</time>
      </trkpt>
      <trkpt lat="44.31052" lon="3.90272">
        <ele>807.6</ele>
        <time>2022-08-08T09:16:57Z</time>
      </trkpt>
      <trkpt lat="44.31052" lon="3.90272">
        <ele>804</ele>
        <time>2022-08-08T09:16:58Z</time>
      </trkpt>
      <trkpt lat="44.31053" lon="3.90271">
        <ele>802</ele>
        <time>2022-08-08T09:16:59Z</time>
      </trkpt>
      <trkpt lat="44.31053" lon="3.9027">
        <ele>823.8</ele>
        <time>2022-08-08T09:17:01Z</time>
      </trkpt>
      <trkpt lat="44.31053" lon="3.9027">
        <ele>835.4</ele>
        <time>2022-08-08T09:17:02Z</time>
      </trkpt>
      <trkpt lat="44.31052" lon="3.90269">
        <ele>841.4</ele>
        <time>2022-08-08T09:17:03Z</time>
      </trkpt>
      <trkpt lat="44.31052" lon="3.90269">
        <ele>844.6</ele>
        <time>2022-08-08T09:17:04Z</time>
      </trkpt>
      <trkpt lat="44.31052" lon="3.90269">
        <ele>846.2</ele>
        <time>2022-08-08T09:17:05Z</time>
      </trkpt>
      <trkpt lat="44.31052" lon="3.90268">
        <ele>847.4</ele>
        <time>2022-08-08T09:17:07Z</time>
      </trkpt>
      <trkpt lat="44.31052" lon="3.90266">
        <ele>847.8</ele>
        <time>2022-08-08T09:17:12Z</time>
      </trkpt>
      <trkpt lat="44.31054" lon="3.90259">
        <ele>847.6</ele>
        <time>2022-08-08T09:17:19Z</time>
      </trkpt>
      <trkpt lat="44.31056" lon="3.90253">
        <ele>847</ele>
        <time>2022-08-08T09:17:24Z</time>
      </trkpt>
      <trkpt lat="44.31062" lon="3.90238">
        <ele>846.4</ele>
        <time>2022-08-08T09:17:36Z</time>
      </trkpt>
      <trkpt lat="44.31063" lon="3.90237">
        <ele>846.4</ele>
        <time>2022-08-08T09:17:37Z</time>
      </trkpt>
      <trkpt lat="44.31069" lon="3.90224">
        <ele>846.6</ele>
        <time>2022-08-08T09:17:49Z</time>
      </trkpt>
      <trkpt lat="44.31077" lon="3.90209">
        <ele>847.2</ele>
        <time>2022-08-08T09:18:03Z</time>
      </trkpt>
      <trkpt lat="44.3108" lon="3.90204">
        <ele>847.4</ele>
        <time>2022-08-08T09:18:08Z</time>
      </trkpt>
      <trkpt lat="44.31085" lon="3.90197">
        <ele>850</ele>
        <time>2022-08-08T09:18:15Z</time>
      </trkpt>
      <trkpt lat="44.31087" lon="3.90194">
        <ele>850.2</ele>
        <time>2022-08-08T09:18:19Z</time>
      </trkpt>
      <trkpt lat="44.3109" lon="3.90189">
        <ele>851</ele>
        <time>2022-08-08T09:18:25Z</time>
      </trkpt>
      <trkpt lat="44.31095" lon="3.90181">
        <ele>852</ele>
        <time>2022-08-08T09:18:34Z</time>
      </trkpt>
      <trkpt lat="44.31096" lon="3.90181">
        <ele>852.2</ele>
        <time>2022-08-08T09:18:35Z</time>
      </trkpt>
      <trkpt lat="44.31104" lon="3.90172">
        <ele>853.2</ele>
        <time>2022-08-08T09:18:46Z</time>
      </trkpt>
      <trkpt lat="44.31104" lon="3.90171">
        <ele>853.2</ele>
        <time>2022-08-08T09:18:47Z</time>
      </trkpt>
      <trkpt lat="44.31113" lon="3.90162">
        <ele>854.2</ele>
        <time>2022-08-08T09:18:59Z</time>
      </trkpt>
      <trkpt lat="44.31116" lon="3.90158">
        <ele>854.8</ele>
        <time>2022-08-08T09:19:04Z</time>
      </trkpt>
      <trkpt lat="44.31119" lon="3.90149">
        <ele>855.4</ele>
        <time>2022-08-08T09:19:15Z</time>
      </trkpt>
      <trkpt lat="44.31122" lon="3.90136">
        <ele>855.8</ele>
        <time>2022-08-08T09:19:25Z</time>
      </trkpt>
      <trkpt lat="44.31123" lon="3.90126">
        <ele>856.2</ele>
        <time>2022-08-08T09:19:34Z</time>
      </trkpt>
      <trkpt lat="44.31123" lon="3.90126">
        <ele>856.2</ele>
        <time>2022-08-08T09:19:35Z</time>
      </trkpt>
      <trkpt lat="44.31123" lon="3.90118">
        <ele>856.2</ele>
        <time>2022-08-08T09:19:44Z</time>
      </trkpt>
      <trkpt lat="44.31125" lon="3.90113">
        <ele>856.4</ele>
        <time>2022-08-08T09:19:47Z</time>
      </trkpt>
      <trkpt lat="44.31127" lon="3.90105">
        <ele>856.8</ele>
        <time>2022-08-08T09:19:54Z</time>
      </trkpt>
      <trkpt lat="44.31128" lon="3.90097">
        <ele>855.8</ele>
        <time>2022-08-08T09:20:04Z</time>
      </trkpt>
      <trkpt lat="44.3113" lon="3.90093">
        <ele>855.8</ele>
        <time>2022-08-08T09:20:13Z</time>
      </trkpt>
      <trkpt lat="44.3113" lon="3.90093">
        <ele>855.8</ele>
        <time>2022-08-08T09:20:14Z</time>
      </trkpt>
      <trkpt lat="44.31131" lon="3.90084">
        <ele>856.6</ele>
        <time>2022-08-08T09:20:21Z</time>
      </trkpt>
      <trkpt lat="44.31138" lon="3.90071">
        <ele>857.2</ele>
        <time>2022-08-08T09:20:33Z</time>
      </trkpt>
      <trkpt lat="44.31144" lon="3.90065">
        <ele>856.4</ele>
        <time>2022-08-08T09:20:43Z</time>
      </trkpt>
      <trkpt lat="44.3115" lon="3.90054">
        <ele>855.2</ele>
        <time>2022-08-08T09:20:53Z</time>
      </trkpt>
      <trkpt lat="44.31153" lon="3.9005">
        <ele>854.6</ele>
        <time>2022-08-08T09:20:57Z</time>
      </trkpt>
      <trkpt lat="44.31155" lon="3.90046">
        <ele>854.2</ele>
        <time>2022-08-08T09:21:00Z</time>
      </trkpt>
      <trkpt lat="44.31159" lon="3.90033">
        <ele>853.6</ele>
        <time>2022-08-08T09:21:10Z</time>
      </trkpt>
      <trkpt lat="44.31165" lon="3.90024">
        <ele>853.2</ele>
        <time>2022-08-08T09:21:18Z</time>
      </trkpt>
      <trkpt lat="44.31168" lon="3.90017">
        <ele>853</ele>
        <time>2022-08-08T09:21:25Z</time>
      </trkpt>
      <trkpt lat="44.3117" lon="3.90013">
        <ele>852</ele>
        <time>2022-08-08T09:21:29Z</time>
      </trkpt>
      <trkpt lat="44.31174" lon="3.90003">
        <ele>851</ele>
        <time>2022-08-08T09:21:38Z</time>
      </trkpt>
      <trkpt lat="44.31175" lon="3.90002">
        <ele>851</ele>
        <time>2022-08-08T09:21:39Z</time>
      </trkpt>
      <trkpt lat="44.31184" lon="3.89991">
        <ele>850.6</ele>
        <time>2022-08-08T09:21:51Z</time>
      </trkpt>
      <trkpt lat="44.31185" lon="3.8999">
        <ele>850</ele>
        <time>2022-08-08T09:21:53Z</time>
      </trkpt>
      <trkpt lat="44.31188" lon="3.89986">
        <ele>849.4</ele>
        <time>2022-08-08T09:22:01Z</time>
      </trkpt>
      <trkpt lat="44.31187" lon="3.89987">
        <ele>849.4</ele>
        <time>2022-08-08T09:22:07Z</time>
      </trkpt>
      <trkpt lat="44.31187" lon="3.89987">
        <ele>853.8</ele>
        <time>2022-08-08T09:22:13Z</time>
      </trkpt>
      <trkpt lat="44.31187" lon="3.89987">
        <ele>856</ele>
        <time>2022-08-08T09:22:14Z</time>
      </trkpt>
      <trkpt lat="44.31187" lon="3.89987">
        <ele>857.2</ele>
        <time>2022-08-08T09:22:15Z</time>
      </trkpt>
      <trkpt lat="44.31186" lon="3.89987">
        <ele>854</ele>
        <time>2022-08-08T09:22:17Z</time>
      </trkpt>
      <trkpt lat="44.31186" lon="3.89986">
        <ele>852.2</ele>
        <time>2022-08-08T09:22:18Z</time>
      </trkpt>
      <trkpt lat="44.31185" lon="3.89987">
        <ele>850.6</ele>
        <time>2022-08-08T09:22:20Z</time>
      </trkpt>
      <trkpt lat="44.31185" lon="3.89986">
        <ele>841.8</ele>
        <time>2022-08-08T09:22:23Z</time>
      </trkpt>
      <trkpt lat="44.31185" lon="3.89986">
        <ele>837.6</ele>
        <time>2022-08-08T09:22:24Z</time>
      </trkpt>
      <trkpt lat="44.31185" lon="3.89986">
        <ele>834.4</ele>
        <time>2022-08-08T09:22:25Z</time>
      </trkpt>
      <trkpt lat="44.31185" lon="3.89986">
        <ele>832.6</ele>
        <time>2022-08-08T09:22:26Z</time>
      </trkpt>
      <trkpt lat="44.31185" lon="3.89986">
        <ele>840.8</ele>
        <time>2022-08-08T09:22:28Z</time>
      </trkpt>
      <trkpt lat="44.31184" lon="3.89986">
        <ele>844.8</ele>
        <time>2022-08-08T09:22:29Z</time>
      </trkpt>
      <trkpt lat="44.31185" lon="3.89986">
        <ele>847.2</ele>
        <time>2022-08-08T09:22:30Z</time>
      </trkpt>
      <trkpt lat="44.31186" lon="3.89987">
        <ele>848.2</ele>
        <time>2022-08-08T09:22:31Z</time>
      </trkpt>
      <trkpt lat="44.31186" lon="3.89988">
        <ele>848.8</ele>
        <time>2022-08-08T09:22:32Z</time>
      </trkpt>
      <trkpt lat="44.31187" lon="3.89988">
        <ele>849.4</ele>
        <time>2022-08-08T09:22:34Z</time>
      </trkpt>
      <trkpt lat="44.31187" lon="3.8999">
        <ele>853.8</ele>
        <time>2022-08-08T09:22:44Z</time>
      </trkpt>
      <trkpt lat="44.31187" lon="3.8999">
        <ele>855.8</ele>
        <time>2022-08-08T09:22:45Z</time>
      </trkpt>
      <trkpt lat="44.31187" lon="3.8999">
        <ele>857</ele>
        <time>2022-08-08T09:22:46Z</time>
      </trkpt>
      <trkpt lat="44.31187" lon="3.89991">
        <ele>858</ele>
        <time>2022-08-08T09:22:52Z</time>
      </trkpt>
      <trkpt lat="44.31187" lon="3.8999">
        <ele>856.8</ele>
        <time>2022-08-08T09:22:58Z</time>
      </trkpt>
      <trkpt lat="44.31187" lon="3.8999">
        <ele>854.2</ele>
        <time>2022-08-08T09:22:59Z</time>
      </trkpt>
      <trkpt lat="44.31187" lon="3.8999">
        <ele>852</ele>
        <time>2022-08-08T09:23:00Z</time>
      </trkpt>
      <trkpt lat="44.31187" lon="3.8999">
        <ele>850.8</ele>
        <time>2022-08-08T09:23:01Z</time>
      </trkpt>
      <trkpt lat="44.31187" lon="3.8999">
        <ele>849.6</ele>
        <time>2022-08-08T09:23:03Z</time>
      </trkpt>
      <trkpt lat="44.31187" lon="3.8999">
        <ele>847.8</ele>
        <time>2022-08-08T09:23:04Z</time>
      </trkpt>
      <trkpt lat="44.31187" lon="3.8999">
        <ele>846.4</ele>
        <time>2022-08-08T09:23:05Z</time>
      </trkpt>
      <trkpt lat="44.31188" lon="3.89991">
        <ele>848</ele>
        <time>2022-08-08T09:23:09Z</time>
      </trkpt>
      <trkpt lat="44.31188" lon="3.89991">
        <ele>849.2</ele>
        <time>2022-08-08T09:23:12Z</time>
      </trkpt>
      <trkpt lat="44.31188" lon="3.89989">
        <ele>849.4</ele>
        <time>2022-08-08T09:23:18Z</time>
      </trkpt>
      <trkpt lat="44.31192" lon="3.89981">
        <ele>849.2</ele>
        <time>2022-08-08T09:23:24Z</time>
      </trkpt>
      <trkpt lat="44.31193" lon="3.89978">
        <ele>850</ele>
        <time>2022-08-08T09:23:26Z</time>
      </trkpt>
      <trkpt lat="44.31198" lon="3.89972">
        <ele>850.2</ele>
        <time>2022-08-08T09:23:31Z</time>
      </trkpt>
      <trkpt lat="44.31202" lon="3.89965">
        <ele>850.8</ele>
        <time>2022-08-08T09:23:38Z</time>
      </trkpt>
      <trkpt lat="44.31202" lon="3.89964">
        <ele>850.6</ele>
        <time>2022-08-08T09:23:50Z</time>
      </trkpt>
      <trkpt lat="44.31203" lon="3.89964">
        <ele>843.8</ele>
        <time>2022-08-08T09:23:57Z</time>
      </trkpt>
      <trkpt lat="44.31203" lon="3.89964">
        <ele>822.4</ele>
        <time>2022-08-08T09:23:58Z</time>
      </trkpt>
      <trkpt lat="44.31203" lon="3.89964">
        <ele>811</ele>
        <time>2022-08-08T09:23:59Z</time>
      </trkpt>
      <trkpt lat="44.31203" lon="3.89963">
        <ele>804.4</ele>
        <time>2022-08-08T09:24:00Z</time>
      </trkpt>
      <trkpt lat="44.31202" lon="3.89964">
        <ele>800.8</ele>
        <time>2022-08-08T09:24:01Z</time>
      </trkpt>
      <trkpt lat="44.31202" lon="3.89964">
        <ele>795</ele>
        <time>2022-08-08T09:24:02Z</time>
      </trkpt>
      <trkpt lat="44.31202" lon="3.89964">
        <ele>783.6</ele>
        <time>2022-08-08T09:24:03Z</time>
      </trkpt>
      <trkpt lat="44.31202" lon="3.89964">
        <ele>777.8</ele>
        <time>2022-08-08T09:24:04Z</time>
      </trkpt>
      <trkpt lat="44.31202" lon="3.89964">
        <ele>775</ele>
        <time>2022-08-08T09:24:05Z</time>
      </trkpt>
      <trkpt lat="44.31202" lon="3.89964">
        <ele>773.4</ele>
        <time>2022-08-08T09:24:06Z</time>
      </trkpt>
      <trkpt lat="44.31202" lon="3.89964">
        <ele>775.8</ele>
        <time>2022-08-08T09:24:07Z</time>
      </trkpt>
      <trkpt lat="44.31202" lon="3.89964">
        <ele>781</ele>
        <time>2022-08-08T09:24:08Z</time>
      </trkpt>
      <trkpt lat="44.31202" lon="3.89963">
        <ele>788</ele>
        <time>2022-08-08T09:24:09Z</time>
      </trkpt>
      <trkpt lat="44.31202" lon="3.89964">
        <ele>793.6</ele>
        <time>2022-08-08T09:24:10Z</time>
      </trkpt>
      <trkpt lat="44.31202" lon="3.89964">
        <ele>821.6</ele>
        <time>2022-08-08T09:24:11Z</time>
      </trkpt>
      <trkpt lat="44.31202" lon="3.89963">
        <ele>836</ele>
        <time>2022-08-08T09:24:12Z</time>
      </trkpt>
      <trkpt lat="44.31202" lon="3.89963">
        <ele>847.2</ele>
        <time>2022-08-08T09:24:13Z</time>
      </trkpt>
      <trkpt lat="44.31202" lon="3.89963">
        <ele>849.2</ele>
        <time>2022-08-08T09:24:15Z</time>
      </trkpt>
      <trkpt lat="44.31201" lon="3.89964">
        <ele>850.4</ele>
        <time>2022-08-08T09:24:17Z</time>
      </trkpt>
      <trkpt lat="44.31201" lon="3.89964">
        <ele>850.8</ele>
        <time>2022-08-08T09:24:19Z</time>
      </trkpt>
      <trkpt lat="44.31204" lon="3.89956">
        <ele>851.4</ele>
        <time>2022-08-08T09:24:28Z</time>
      </trkpt>
      <trkpt lat="44.31206" lon="3.89955">
        <ele>851.4</ele>
        <time>2022-08-08T09:24:31Z</time>
      </trkpt>
      <trkpt lat="44.31207" lon="3.89954">
        <ele>851.6</ele>
        <time>2022-08-08T09:24:33Z</time>
      </trkpt>
      <trkpt lat="44.31208" lon="3.89951">
        <ele>851.6</ele>
        <time>2022-08-08T09:24:35Z</time>
      </trkpt>
      <trkpt lat="44.31209" lon="3.89951">
        <ele>851.6</ele>
        <time>2022-08-08T09:24:36Z</time>
      </trkpt>
      <trkpt lat="44.31213" lon="3.8994">
        <ele>852.6</ele>
        <time>2022-08-08T09:24:45Z</time>
      </trkpt>
      <trkpt lat="44.31215" lon="3.89934">
        <ele>853.4</ele>
        <time>2022-08-08T09:24:50Z</time>
      </trkpt>
      <trkpt lat="44.31216" lon="3.8993">
        <ele>853.8</ele>
        <time>2022-08-08T09:24:53Z</time>
      </trkpt>
      <trkpt lat="44.3122" lon="3.89923">
        <ele>854.8</ele>
        <time>2022-08-08T09:24:59Z</time>
      </trkpt>
      <trkpt lat="44.31224" lon="3.89917">
        <ele>855.4</ele>
        <time>2022-08-08T09:25:04Z</time>
      </trkpt>
      <trkpt lat="44.31227" lon="3.89914">
        <ele>855.8</ele>
        <time>2022-08-08T09:25:08Z</time>
      </trkpt>
      <trkpt lat="44.31232" lon="3.89907">
        <ele>856.8</ele>
        <time>2022-08-08T09:25:16Z</time>
      </trkpt>
      <trkpt lat="44.31233" lon="3.89905">
        <ele>857</ele>
        <time>2022-08-08T09:25:17Z</time>
      </trkpt>
      <trkpt lat="44.31235" lon="3.89902">
        <ele>857.8</ele>
        <time>2022-08-08T09:25:22Z</time>
      </trkpt>
      <trkpt lat="44.31236" lon="3.89899">
        <ele>858</ele>
        <time>2022-08-08T09:25:25Z</time>
      </trkpt>
      <trkpt lat="44.3124" lon="3.89889">
        <ele>859.2</ele>
        <time>2022-08-08T09:25:36Z</time>
      </trkpt>
      <trkpt lat="44.31241" lon="3.89886">
        <ele>859.4</ele>
        <time>2022-08-08T09:25:39Z</time>
      </trkpt>
      <trkpt lat="44.31245" lon="3.89879">
        <ele>860.2</ele>
        <time>2022-08-08T09:25:46Z</time>
      </trkpt>
      <trkpt lat="44.3125" lon="3.89872">
        <ele>861.2</ele>
        <time>2022-08-08T09:25:53Z</time>
      </trkpt>
      <trkpt lat="44.31256" lon="3.89858">
        <ele>862.4</ele>
        <time>2022-08-08T09:26:04Z</time>
      </trkpt>
      <trkpt lat="44.31257" lon="3.89854">
        <ele>862.8</ele>
        <time>2022-08-08T09:26:07Z</time>
      </trkpt>
      <trkpt lat="44.3126" lon="3.89847">
        <ele>863.4</ele>
        <time>2022-08-08T09:26:13Z</time>
      </trkpt>
      <trkpt lat="44.31262" lon="3.8984">
        <ele>864</ele>
        <time>2022-08-08T09:26:18Z</time>
      </trkpt>
      <trkpt lat="44.31264" lon="3.89836">
        <ele>864.4</ele>
        <time>2022-08-08T09:26:21Z</time>
      </trkpt>
      <trkpt lat="44.31271" lon="3.89824">
        <ele>865.6</ele>
        <time>2022-08-08T09:26:31Z</time>
      </trkpt>
      <trkpt lat="44.31272" lon="3.89811">
        <ele>866.6</ele>
        <time>2022-08-08T09:26:40Z</time>
      </trkpt>
      <trkpt lat="44.31273" lon="3.89804">
        <ele>867</ele>
        <time>2022-08-08T09:26:45Z</time>
      </trkpt>
      <trkpt lat="44.31275" lon="3.89799">
        <ele>867.6</ele>
        <time>2022-08-08T09:26:49Z</time>
      </trkpt>
      <trkpt lat="44.31279" lon="3.89788">
        <ele>868.8</ele>
        <time>2022-08-08T09:26:58Z</time>
      </trkpt>
      <trkpt lat="44.31283" lon="3.89773">
        <ele>869.8</ele>
        <time>2022-08-08T09:27:09Z</time>
      </trkpt>
      <trkpt lat="44.31285" lon="3.89766">
        <ele>870.2</ele>
        <time>2022-08-08T09:27:14Z</time>
      </trkpt>
      <trkpt lat="44.31286" lon="3.89758">
        <ele>870.8</ele>
        <time>2022-08-08T09:27:22Z</time>
      </trkpt>
      <trkpt lat="44.31287" lon="3.89755">
        <ele>871</ele>
        <time>2022-08-08T09:27:24Z</time>
      </trkpt>
      <trkpt lat="44.31291" lon="3.89747">
        <ele>871.8</ele>
        <time>2022-08-08T09:27:32Z</time>
      </trkpt>
      <trkpt lat="44.31294" lon="3.8974">
        <ele>872.2</ele>
        <time>2022-08-08T09:27:38Z</time>
      </trkpt>
      <trkpt lat="44.31299" lon="3.89734">
        <ele>872.8</ele>
        <time>2022-08-08T09:27:44Z</time>
      </trkpt>
      <trkpt lat="44.31304" lon="3.8973">
        <ele>873.6</ele>
        <time>2022-08-08T09:27:50Z</time>
      </trkpt>
      <trkpt lat="44.31305" lon="3.89729">
        <ele>873.8</ele>
        <time>2022-08-08T09:27:53Z</time>
      </trkpt>
      <trkpt lat="44.3131" lon="3.89725">
        <ele>874.4</ele>
        <time>2022-08-08T09:28:01Z</time>
      </trkpt>
      <trkpt lat="44.31317" lon="3.89722">
        <ele>874.8</ele>
        <time>2022-08-08T09:28:09Z</time>
      </trkpt>
      <trkpt lat="44.31319" lon="3.89721">
        <ele>875</ele>
        <time>2022-08-08T09:28:12Z</time>
      </trkpt>
      <trkpt lat="44.31331" lon="3.89717">
        <ele>875.8</ele>
        <time>2022-08-08T09:28:25Z</time>
      </trkpt>
      <trkpt lat="44.31333" lon="3.89717">
        <ele>866.6</ele>
        <time>2022-08-08T09:28:27Z</time>
      </trkpt>
      <trkpt lat="44.31333" lon="3.89717">
        <ele>859.4</ele>
        <time>2022-08-08T09:28:28Z</time>
      </trkpt>
      <trkpt lat="44.31334" lon="3.89717">
        <ele>855.8</ele>
        <time>2022-08-08T09:28:29Z</time>
      </trkpt>
      <trkpt lat="44.31335" lon="3.89717">
        <ele>854</ele>
        <time>2022-08-08T09:28:30Z</time>
      </trkpt>
      <trkpt lat="44.31336" lon="3.89717">
        <ele>855.6</ele>
        <time>2022-08-08T09:28:32Z</time>
      </trkpt>
      <trkpt lat="44.31335" lon="3.89717">
        <ele>865.6</ele>
        <time>2022-08-08T09:28:33Z</time>
      </trkpt>
      <trkpt lat="44.31336" lon="3.89717">
        <ele>870.6</ele>
        <time>2022-08-08T09:28:34Z</time>
      </trkpt>
      <trkpt lat="44.31336" lon="3.89717">
        <ele>873.4</ele>
        <time>2022-08-08T09:28:35Z</time>
      </trkpt>
      <trkpt lat="44.31336" lon="3.89717">
        <ele>875.2</ele>
        <time>2022-08-08T09:28:36Z</time>
      </trkpt>
      <trkpt lat="44.31337" lon="3.89717">
        <ele>871.6</ele>
        <time>2022-08-08T09:28:40Z</time>
      </trkpt>
      <trkpt lat="44.31337" lon="3.89717">
        <ele>863.2</ele>
        <time>2022-08-08T09:28:41Z</time>
      </trkpt>
      <trkpt lat="44.31338" lon="3.89717">
        <ele>857</ele>
        <time>2022-08-08T09:28:42Z</time>
      </trkpt>
      <trkpt lat="44.31338" lon="3.89717">
        <ele>853.4</ele>
        <time>2022-08-08T09:28:43Z</time>
      </trkpt>
      <trkpt lat="44.31341" lon="3.89717">
        <ele>835.6</ele>
        <time>2022-08-08T09:28:44Z</time>
      </trkpt>
      <trkpt lat="44.31341" lon="3.89717">
        <ele>831.2</ele>
        <time>2022-08-08T09:28:46Z</time>
      </trkpt>
      <trkpt lat="44.31342" lon="3.89717">
        <ele>839.6</ele>
        <time>2022-08-08T09:28:48Z</time>
      </trkpt>
      <trkpt lat="44.31342" lon="3.89716">
        <ele>856.4</ele>
        <time>2022-08-08T09:28:49Z</time>
      </trkpt>
      <trkpt lat="44.31342" lon="3.89716">
        <ele>865.4</ele>
        <time>2022-08-08T09:28:50Z</time>
      </trkpt>
      <trkpt lat="44.31342" lon="3.89716">
        <ele>870</ele>
        <time>2022-08-08T09:28:51Z</time>
      </trkpt>
      <trkpt lat="44.31342" lon="3.89716">
        <ele>872.4</ele>
        <time>2022-08-08T09:28:52Z</time>
      </trkpt>
      <trkpt lat="44.31341" lon="3.89717">
        <ele>873.8</ele>
        <time>2022-08-08T09:28:53Z</time>
      </trkpt>
      <trkpt lat="44.31341" lon="3.89717">
        <ele>874.8</ele>
        <time>2022-08-08T09:28:55Z</time>
      </trkpt>
      <trkpt lat="44.3134" lon="3.89717">
        <ele>874.8</ele>
        <time>2022-08-08T09:28:56Z</time>
      </trkpt>
      <trkpt lat="44.3134" lon="3.89717">
        <ele>875.2</ele>
        <time>2022-08-08T09:29:07Z</time>
      </trkpt>
      <trkpt lat="44.31342" lon="3.89717">
        <ele>875.2</ele>
        <time>2022-08-08T09:29:26Z</time>
      </trkpt>
      <trkpt lat="44.31341" lon="3.89711">
        <ele>875</ele>
        <time>2022-08-08T09:29:44Z</time>
      </trkpt>
      <trkpt lat="44.31336" lon="3.89704">
        <ele>875.4</ele>
        <time>2022-08-08T09:29:52Z</time>
      </trkpt>
      <trkpt lat="44.31339" lon="3.89694">
        <ele>875.6</ele>
        <time>2022-08-08T09:30:01Z</time>
      </trkpt>
      <trkpt lat="44.31347" lon="3.89677">
        <ele>875.4</ele>
        <time>2022-08-08T09:30:15Z</time>
      </trkpt>
      <trkpt lat="44.31355" lon="3.89659">
        <ele>874.6</ele>
        <time>2022-08-08T09:30:29Z</time>
      </trkpt>
      <trkpt lat="44.31356" lon="3.89655">
        <ele>874.4</ele>
        <time>2022-08-08T09:30:32Z</time>
      </trkpt>
      <trkpt lat="44.31361" lon="3.8964">
        <ele>874.6</ele>
        <time>2022-08-08T09:30:44Z</time>
      </trkpt>
      <trkpt lat="44.31368" lon="3.89622">
        <ele>874.8</ele>
        <time>2022-08-08T09:30:57Z</time>
      </trkpt>
      <trkpt lat="44.31374" lon="3.89603">
        <ele>875.6</ele>
        <time>2022-08-08T09:31:11Z</time>
      </trkpt>
      <trkpt lat="44.31377" lon="3.89593">
        <ele>876</ele>
        <time>2022-08-08T09:31:19Z</time>
      </trkpt>
      <trkpt lat="44.31379" lon="3.89585">
        <ele>876.6</ele>
        <time>2022-08-08T09:31:26Z</time>
      </trkpt>
      <trkpt lat="44.3138" lon="3.89582">
        <ele>877</ele>
        <time>2022-08-08T09:31:28Z</time>
      </trkpt>
      <trkpt lat="44.31383" lon="3.89571">
        <ele>878</ele>
        <time>2022-08-08T09:31:37Z</time>
      </trkpt>
      <trkpt lat="44.31384" lon="3.89568">
        <ele>878.6</ele>
        <time>2022-08-08T09:31:40Z</time>
      </trkpt>
      <trkpt lat="44.31386" lon="3.89559">
        <ele>879.2</ele>
        <time>2022-08-08T09:31:46Z</time>
      </trkpt>
      <trkpt lat="44.31387" lon="3.89555">
        <ele>879.8</ele>
        <time>2022-08-08T09:31:51Z</time>
      </trkpt>
      <trkpt lat="44.31388" lon="3.89548">
        <ele>880.2</ele>
        <time>2022-08-08T09:31:57Z</time>
      </trkpt>
      <trkpt lat="44.3139" lon="3.89548">
        <ele>880.2</ele>
        <time>2022-08-08T09:31:59Z</time>
      </trkpt>
      <trkpt lat="44.31391" lon="3.89549">
        <ele>880.2</ele>
        <time>2022-08-08T09:32:01Z</time>
      </trkpt>
      <trkpt lat="44.31397" lon="3.89549">
        <ele>880.2</ele>
        <time>2022-08-08T09:32:13Z</time>
      </trkpt>
      <trkpt lat="44.31397" lon="3.89548">
        <ele>880.2</ele>
        <time>2022-08-08T09:32:27Z</time>
      </trkpt>
      <trkpt lat="44.3139" lon="3.89549">
        <ele>880.2</ele>
        <time>2022-08-08T09:32:36Z</time>
      </trkpt>
      <trkpt lat="44.31387" lon="3.89549">
        <ele>880</ele>
        <time>2022-08-08T09:32:39Z</time>
      </trkpt>
      <trkpt lat="44.31383" lon="3.89547">
        <ele>879.8</ele>
        <time>2022-08-08T09:32:46Z</time>
      </trkpt>
      <trkpt lat="44.31383" lon="3.8955">
        <ele>879.6</ele>
        <time>2022-08-08T09:32:57Z</time>
      </trkpt>
      <trkpt lat="44.31383" lon="3.89553">
        <ele>879.8</ele>
        <time>2022-08-08T09:33:06Z</time>
      </trkpt>
      <trkpt lat="44.31388" lon="3.89552">
        <ele>879.8</ele>
        <time>2022-08-08T09:33:18Z</time>
      </trkpt>
      <trkpt lat="44.31395" lon="3.8955">
        <ele>880.2</ele>
        <time>2022-08-08T09:33:29Z</time>
      </trkpt>
      <trkpt lat="44.31395" lon="3.89551">
        <ele>881</ele>
        <time>2022-08-08T09:33:39Z</time>
      </trkpt>
      <trkpt lat="44.31395" lon="3.8955">
        <ele>880.2</ele>
        <time>2022-08-08T09:33:52Z</time>
      </trkpt>
      <trkpt lat="44.31393" lon="3.8955">
        <ele>879.4</ele>
        <time>2022-08-08T09:34:06Z</time>
      </trkpt>
      <trkpt lat="44.31387" lon="3.89548">
        <ele>879.4</ele>
        <time>2022-08-08T09:34:17Z</time>
      </trkpt>
      <trkpt lat="44.31387" lon="3.89548">
        <ele>879.4</ele>
        <time>2022-08-08T09:34:32Z</time>
      </trkpt>
      <trkpt lat="44.31387" lon="3.89549">
        <ele>879.4</ele>
        <time>2022-08-08T09:34:51Z</time>
      </trkpt>
      <trkpt lat="44.31387" lon="3.8955">
        <ele>879.4</ele>
        <time>2022-08-08T09:35:08Z</time>
      </trkpt>
      <trkpt lat="44.31386" lon="3.89551">
        <ele>879.6</ele>
        <time>2022-08-08T09:35:25Z</time>
      </trkpt>
      <trkpt lat="44.31386" lon="3.8955">
        <ele>879.6</ele>
        <time>2022-08-08T09:35:43Z</time>
      </trkpt>
      <trkpt lat="44.31387" lon="3.89551">
        <ele>879.6</ele>
        <time>2022-08-08T09:36:02Z</time>
      </trkpt>
      <trkpt lat="44.31387" lon="3.89551">
        <ele>879.2</ele>
        <time>2022-08-08T09:36:23Z</time>
      </trkpt>
      <trkpt lat="44.31387" lon="3.89553">
        <ele>879</ele>
        <time>2022-08-08T09:36:31Z</time>
      </trkpt>
      <trkpt lat="44.31386" lon="3.89553">
        <ele>879.2</ele>
        <time>2022-08-08T09:36:36Z</time>
      </trkpt>
      <trkpt lat="44.31386" lon="3.89553">
        <ele>879.6</ele>
        <time>2022-08-08T09:36:56Z</time>
      </trkpt>
      <trkpt lat="44.31386" lon="3.89554">
        <ele>879.2</ele>
        <time>2022-08-08T09:37:12Z</time>
      </trkpt>
      <trkpt lat="44.31384" lon="3.89559">
        <ele>879</ele>
        <time>2022-08-08T09:37:24Z</time>
      </trkpt>
      <trkpt lat="44.31382" lon="3.89568">
        <ele>878.2</ele>
        <time>2022-08-08T09:37:37Z</time>
      </trkpt>
      <trkpt lat="44.31383" lon="3.89569">
        <ele>878</ele>
        <time>2022-08-08T09:37:45Z</time>
      </trkpt>
      <trkpt lat="44.31383" lon="3.89569">
        <ele>878</ele>
        <time>2022-08-08T09:37:52Z</time>
      </trkpt>
      <trkpt lat="44.31382" lon="3.8957">
        <ele>878.2</ele>
        <time>2022-08-08T09:38:09Z</time>
      </trkpt>
      <trkpt lat="44.31381" lon="3.89576">
        <ele>877.2</ele>
        <time>2022-08-08T09:38:20Z</time>
      </trkpt>
      <trkpt lat="44.31379" lon="3.89581">
        <ele>876.8</ele>
        <time>2022-08-08T09:38:24Z</time>
      </trkpt>
      <trkpt lat="44.31378" lon="3.89587">
        <ele>876.4</ele>
        <time>2022-08-08T09:38:30Z</time>
      </trkpt>
      <trkpt lat="44.31378" lon="3.89587">
        <ele>876.2</ele>
        <time>2022-08-08T09:38:32Z</time>
      </trkpt>
      <trkpt lat="44.31378" lon="3.89588">
        <ele>876.2</ele>
        <time>2022-08-08T09:38:46Z</time>
      </trkpt>
      <trkpt lat="44.31377" lon="3.89586">
        <ele>876</ele>
        <time>2022-08-08T09:39:03Z</time>
      </trkpt>
      <trkpt lat="44.31376" lon="3.89588">
        <ele>875.8</ele>
        <time>2022-08-08T09:39:13Z</time>
      </trkpt>
      <trkpt lat="44.31375" lon="3.89593">
        <ele>876</ele>
        <time>2022-08-08T09:39:17Z</time>
      </trkpt>
      <trkpt lat="44.31371" lon="3.89608">
        <ele>875.8</ele>
        <time>2022-08-08T09:39:28Z</time>
      </trkpt>
      <trkpt lat="44.31365" lon="3.89624">
        <ele>875.8</ele>
        <time>2022-08-08T09:39:40Z</time>
      </trkpt>
      <trkpt lat="44.31361" lon="3.89635">
        <ele>875.4</ele>
        <time>2022-08-08T09:39:50Z</time>
      </trkpt>
      <trkpt lat="44.31355" lon="3.89654">
        <ele>875</ele>
        <time>2022-08-08T09:40:03Z</time>
      </trkpt>
      <trkpt lat="44.31354" lon="3.89657">
        <ele>875</ele>
        <time>2022-08-08T09:40:05Z</time>
      </trkpt>
      <trkpt lat="44.31353" lon="3.89661">
        <ele>874.8</ele>
        <time>2022-08-08T09:40:08Z</time>
      </trkpt>
      <trkpt lat="44.31351" lon="3.89665">
        <ele>874.8</ele>
        <time>2022-08-08T09:40:11Z</time>
      </trkpt>
      <trkpt lat="44.31346" lon="3.8968">
        <ele>874.6</ele>
        <time>2022-08-08T09:40:22Z</time>
      </trkpt>
      <trkpt lat="44.31342" lon="3.89694">
        <ele>875</ele>
        <time>2022-08-08T09:40:32Z</time>
      </trkpt>
      <trkpt lat="44.31336" lon="3.89708">
        <ele>875.4</ele>
        <time>2022-08-08T09:40:43Z</time>
      </trkpt>
      <trkpt lat="44.31328" lon="3.89717">
        <ele>875.6</ele>
        <time>2022-08-08T09:40:52Z</time>
      </trkpt>
      <trkpt lat="44.31319" lon="3.89723">
        <ele>875.4</ele>
        <time>2022-08-08T09:41:00Z</time>
      </trkpt>
      <trkpt lat="44.31309" lon="3.89727">
        <ele>874</ele>
        <time>2022-08-08T09:41:09Z</time>
      </trkpt>
      <trkpt lat="44.31303" lon="3.89731">
        <ele>873.8</ele>
        <time>2022-08-08T09:41:15Z</time>
      </trkpt>
      <trkpt lat="44.31302" lon="3.89733">
        <ele>873.6</ele>
        <time>2022-08-08T09:41:17Z</time>
      </trkpt>
      <trkpt lat="44.31301" lon="3.89733">
        <ele>873.6</ele>
        <time>2022-08-08T09:41:18Z</time>
      </trkpt>
      <trkpt lat="44.31299" lon="3.89735">
        <ele>873.4</ele>
        <time>2022-08-08T09:41:22Z</time>
      </trkpt>
      <trkpt lat="44.31298" lon="3.89736">
        <ele>873.2</ele>
        <time>2022-08-08T09:41:24Z</time>
      </trkpt>
      <trkpt lat="44.31297" lon="3.89736">
        <ele>873</ele>
        <time>2022-08-08T09:41:25Z</time>
      </trkpt>
      <trkpt lat="44.31297" lon="3.89736">
        <ele>872.6</ele>
        <time>2022-08-08T09:41:27Z</time>
      </trkpt>
      <trkpt lat="44.31295" lon="3.89741">
        <ele>872.2</ele>
        <time>2022-08-08T09:41:34Z</time>
      </trkpt>
      <trkpt lat="44.3129" lon="3.89753">
        <ele>871.6</ele>
        <time>2022-08-08T09:41:44Z</time>
      </trkpt>
      <trkpt lat="44.31289" lon="3.89756">
        <ele>871.2</ele>
        <time>2022-08-08T09:41:46Z</time>
      </trkpt>
      <trkpt lat="44.31287" lon="3.89763">
        <ele>870.6</ele>
        <time>2022-08-08T09:41:52Z</time>
      </trkpt>
      <trkpt lat="44.31284" lon="3.89775">
        <ele>870</ele>
        <time>2022-08-08T09:42:00Z</time>
      </trkpt>
      <trkpt lat="44.31283" lon="3.89777">
        <ele>869.8</ele>
        <time>2022-08-08T09:42:01Z</time>
      </trkpt>
      <trkpt lat="44.31281" lon="3.8978">
        <ele>869.6</ele>
        <time>2022-08-08T09:42:04Z</time>
      </trkpt>
      <trkpt lat="44.31278" lon="3.89793">
        <ele>868.8</ele>
        <time>2022-08-08T09:42:13Z</time>
      </trkpt>
      <trkpt lat="44.31277" lon="3.89795">
        <ele>868.4</ele>
        <time>2022-08-08T09:42:15Z</time>
      </trkpt>
      <trkpt lat="44.31273" lon="3.89806">
        <ele>867.4</ele>
        <time>2022-08-08T09:42:24Z</time>
      </trkpt>
      <trkpt lat="44.3127" lon="3.89817">
        <ele>866.2</ele>
        <time>2022-08-08T09:42:33Z</time>
      </trkpt>
      <trkpt lat="44.31269" lon="3.89822">
        <ele>865.8</ele>
        <time>2022-08-08T09:42:37Z</time>
      </trkpt>
      <trkpt lat="44.31265" lon="3.89834">
        <ele>865</ele>
        <time>2022-08-08T09:42:46Z</time>
      </trkpt>
      <trkpt lat="44.31263" lon="3.89838">
        <ele>864.4</ele>
        <time>2022-08-08T09:42:50Z</time>
      </trkpt>
      <trkpt lat="44.31262" lon="3.89842">
        <ele>864</ele>
        <time>2022-08-08T09:42:54Z</time>
      </trkpt>
      <trkpt lat="44.31258" lon="3.8985">
        <ele>863</ele>
        <time>2022-08-08T09:43:01Z</time>
      </trkpt>
      <trkpt lat="44.31257" lon="3.89852">
        <ele>863</ele>
        <time>2022-08-08T09:43:03Z</time>
      </trkpt>
      <trkpt lat="44.31253" lon="3.89864">
        <ele>861.8</ele>
        <time>2022-08-08T09:43:13Z</time>
      </trkpt>
      <trkpt lat="44.31252" lon="3.89867">
        <ele>861.4</ele>
        <time>2022-08-08T09:43:16Z</time>
      </trkpt>
      <trkpt lat="44.31248" lon="3.89876">
        <ele>860.8</ele>
        <time>2022-08-08T09:43:24Z</time>
      </trkpt>
      <trkpt lat="44.31245" lon="3.89883">
        <ele>859.8</ele>
        <time>2022-08-08T09:43:30Z</time>
      </trkpt>
      <trkpt lat="44.31238" lon="3.89895">
        <ele>858.8</ele>
        <time>2022-08-08T09:43:43Z</time>
      </trkpt>
      <trkpt lat="44.31237" lon="3.89896">
        <ele>858.6</ele>
        <time>2022-08-08T09:43:45Z</time>
      </trkpt>
      <trkpt lat="44.31233" lon="3.89903">
        <ele>857.4</ele>
        <time>2022-08-08T09:43:53Z</time>
      </trkpt>
      <trkpt lat="44.31232" lon="3.89904">
        <ele>857.2</ele>
        <time>2022-08-08T09:43:55Z</time>
      </trkpt>
      <trkpt lat="44.31229" lon="3.89909">
        <ele>856.4</ele>
        <time>2022-08-08T09:44:02Z</time>
      </trkpt>
      <trkpt lat="44.31227" lon="3.89912">
        <ele>856.2</ele>
        <time>2022-08-08T09:44:05Z</time>
      </trkpt>
      <trkpt lat="44.31225" lon="3.89915">
        <ele>856</ele>
        <time>2022-08-08T09:44:09Z</time>
      </trkpt>
      <trkpt lat="44.31223" lon="3.89918">
        <ele>855.2</ele>
        <time>2022-08-08T09:44:12Z</time>
      </trkpt>
      <trkpt lat="44.31218" lon="3.89926">
        <ele>854.2</ele>
        <time>2022-08-08T09:44:21Z</time>
      </trkpt>
      <trkpt lat="44.31218" lon="3.89927">
        <ele>854</ele>
        <time>2022-08-08T09:44:22Z</time>
      </trkpt>
      <trkpt lat="44.31214" lon="3.89935">
        <ele>853.2</ele>
        <time>2022-08-08T09:44:30Z</time>
      </trkpt>
      <trkpt lat="44.31212" lon="3.89942">
        <ele>852</ele>
        <time>2022-08-08T09:44:37Z</time>
      </trkpt>
      <trkpt lat="44.31207" lon="3.89955">
        <ele>851</ele>
        <time>2022-08-08T09:44:49Z</time>
      </trkpt>
      <trkpt lat="44.31207" lon="3.89955">
        <ele>851</ele>
        <time>2022-08-08T09:44:50Z</time>
      </trkpt>
      <trkpt lat="44.31202" lon="3.89964">
        <ele>850</ele>
        <time>2022-08-08T09:44:59Z</time>
      </trkpt>
      <trkpt lat="44.312" lon="3.89967">
        <ele>849.8</ele>
        <time>2022-08-08T09:45:02Z</time>
      </trkpt>
      <trkpt lat="44.31191" lon="3.89978">
        <ele>850</ele>
        <time>2022-08-08T09:45:13Z</time>
      </trkpt>
      <trkpt lat="44.31187" lon="3.89983">
        <ele>850</ele>
        <time>2022-08-08T09:45:18Z</time>
      </trkpt>
      <trkpt lat="44.31185" lon="3.89984">
        <ele>850.4</ele>
        <time>2022-08-08T09:45:21Z</time>
      </trkpt>
      <trkpt lat="44.31185" lon="3.89985">
        <ele>850.4</ele>
        <time>2022-08-08T09:45:22Z</time>
      </trkpt>
    </trkseg>
  </trk>
</gpx>